
Distance (Route):
Temperature : 22.9°C
Humidity : 0%
Pressure : 0hPa| Receiver | Frames | First received | Last received |
|---|---|---|---|
| ARGUS2 | 481 | 2026-09-05 23:05:42 | 2026-09-06 02:09:38 |
| Receiver | Date | Latitude | Longitude | Direction | Speed | Altitude | Climb | Temperature | Humidity | Pressure | Voltage | Killtimer | Uptime | BKT | XDATA |
|---|---|---|---|---|---|---|---|---|---|---|---|---|---|---|---|
| ARGUS2 | 2026-09-06 02:09:38 | 27.68534 | -82.69339 | 116° | 4km/h | 870m | -4.0m/s | 22.9°C | 0% | 0hPa | 0V | 00:00:00 | 00:00:00 | 00:00:00 | |
| ARGUS2 | 2026-09-06 02:09:15 | 27.68541 | -82.69360 | 117° | 4km/h | 958m | -4.2m/s | 22.5°C | 0% | 0hPa | 0V | 00:00:00 | 00:00:00 | 00:00:00 | |
| ARGUS2 | 2026-09-06 02:08:53 | 27.68539 | -82.69373 | 38° | 2km/h | 1046m | -3.7m/s | 22.1°C | 0% | 0hPa | 0V | 00:00:00 | 00:00:00 | 00:00:00 | |
| ARGUS2 | 2026-09-06 02:08:32 | 27.68529 | -82.69378 | 15° | 4km/h | 1131m | -4.3m/s | 21.6°C | 0% | 0hPa | 0V | 00:00:00 | 00:00:00 | 00:00:00 | |
| ARGUS2 | 2026-09-06 02:08:11 | 27.68510 | -82.69382 | 3° | 4km/h | 1220m | -4.1m/s | 21.2°C | 0% | 0hPa | 0V | 00:00:00 | 00:00:00 | 00:00:00 | |
| ARGUS2 | 2026-09-06 02:07:50 | 27.68489 | -82.69376 | 341° | 5km/h | 1300m | -3.9m/s | 20.6°C | 0% | 0hPa | 0V | 00:00:00 | 00:00:00 | 00:00:00 | |
| ARGUS2 | 2026-09-06 02:07:30 | 27.68465 | -82.69373 | 360° | 5km/h | 1380m | -3.9m/s | 20.2°C | 0% | 0hPa | 0V | 00:00:00 | 00:00:00 | 00:00:00 | |
| ARGUS2 | 2026-09-06 02:07:09 | 27.68442 | -82.69374 | 338° | 4km/h | 1465m | -4.2m/s | 19.8°C | 0% | 0hPa | 0V | 00:00:00 | 00:00:00 | 00:00:00 | |
| ARGUS2 | 2026-09-06 02:06:48 | 27.68421 | -82.69373 | 13° | 4km/h | 1550m | -3.8m/s | 19.3°C | 0% | 0hPa | 0V | 00:00:00 | 00:00:00 | 00:00:00 | |
| ARGUS2 | 2026-09-06 02:06:28 | 27.68405 | -82.69379 | 22° | 4km/h | 1636m | -4.3m/s | 18.9°C | 0% | 0hPa | 0V | 00:00:00 | 00:00:00 | 00:00:00 | |
| ARGUS2 | 2026-09-06 02:06:06 | 27.68387 | -82.69383 | 14° | 4km/h | 1722m | -4.2m/s | 18.5°C | 0% | 0hPa | 0V | 00:00:00 | 00:00:00 | 00:00:00 | |
| ARGUS2 | 2026-09-06 02:05:45 | 27.68371 | -82.69386 | 42° | 2km/h | 1808m | -4.1m/s | 18.0°C | 0% | 0hPa | 0V | 00:00:00 | 00:00:00 | 00:00:00 | |
| ARGUS2 | 2026-09-06 02:03:46 | 27.68326 | -82.69512 | 96° | 5km/h | 2305m | -4.2m/s | 15.5°C | 0% | 0hPa | 0V | 00:00:00 | 00:00:00 | 00:00:00 | |
| ARGUS2 | 2026-09-06 02:03:19 | 27.68330 | -82.69554 | 98° | 5km/h | 2419m | -3.9m/s | 14.9°C | 0% | 0hPa | 0V | 00:00:00 | 00:00:00 | 00:00:00 | |
| ARGUS2 | 2026-09-06 02:00:23 | 27.68394 | -82.69920 | 103° | 11km/h | 3144m | -3.9m/s | 10.2°C | 0% | 0hPa | 0V | 00:00:00 | 00:00:00 | 00:00:00 | |
| ARGUS2 | 2026-09-06 02:00:00 | 27.68410 | -82.69988 | 100° | 11km/h | 3232m | -3.9m/s | 9.8°C | 0% | 0hPa | 0V | 00:00:00 | 00:00:00 | 00:00:00 | |
| ARGUS2 | 2026-09-06 01:59:40 | 27.68418 | -82.70065 | 99° | 15km/h | 3312m | -3.8m/s | 9.3°C | 0% | 0hPa | 0V | 00:00:00 | 00:00:00 | 00:00:00 | |
| ARGUS2 | 2026-09-06 01:59:19 | 27.68429 | -82.70169 | 94° | 18km/h | 3391m | -3.8m/s | 9.3°C | 0% | 0hPa | 0V | 00:00:00 | 00:00:00 | 00:00:00 | |
| ARGUS2 | 2026-09-06 01:58:57 | 27.68430 | -82.70278 | 94° | 18km/h | 3470m | -3.8m/s | 9.0°C | 0% | 0hPa | 0V | 00:00:00 | 00:00:00 | 00:00:00 | |
| ARGUS2 | 2026-09-06 01:58:36 | 27.68440 | -82.70383 | 97° | 16km/h | 3549m | -3.7m/s | 8.7°C | 0% | 0hPa | 0V | 00:00:00 | 00:00:00 | 00:00:00 | |
| ARGUS2 | 2026-09-06 01:58:16 | 27.68449 | -82.70479 | 95° | 15km/h | 3627m | -3.8m/s | 8.2°C | 0% | 0hPa | 0V | 00:00:00 | 00:00:00 | 00:00:00 | |
| ARGUS2 | 2026-09-06 01:57:55 | 27.68448 | -82.70566 | 91° | 15km/h | 3701m | -3.9m/s | 7.7°C | 0% | 0hPa | 0V | 00:00:00 | 00:00:00 | 00:00:00 | |
| ARGUS2 | 2026-09-06 01:57:35 | 27.68447 | -82.70647 | 92° | 13km/h | 3783m | -3.8m/s | 7.1°C | 0% | 0hPa | 0V | 00:00:00 | 00:00:00 | 00:00:00 | |
| ARGUS2 | 2026-09-06 01:57:13 | 27.68448 | -82.70724 | 92° | 11km/h | 3867m | -4.1m/s | 6.7°C | 0% | 0hPa | 0V | 00:00:00 | 00:00:00 | 00:00:00 | |
| ARGUS2 | 2026-09-06 01:56:53 | 27.68452 | -82.70787 | 100° | 11km/h | 3948m | -4.3m/s | 6.2°C | 0% | 0hPa | 0V | 00:00:00 | 00:00:00 | 00:00:00 | |
| ARGUS2 | 2026-09-06 01:56:32 | 27.68458 | -82.70846 | 97° | 9km/h | 4036m | -3.9m/s | 5.5°C | 0% | 0hPa | 0V | 00:00:00 | 00:00:00 | 00:00:00 | |
| ARGUS2 | 2026-09-06 01:56:11 | 27.68458 | -82.70908 | 85° | 9km/h | 4129m | -4.3m/s | 4.7°C | 0% | 0hPa | 0V | 00:00:00 | 00:00:00 | 00:00:00 | |
| ARGUS2 | 2026-09-06 01:55:49 | 27.68453 | -82.70961 | 90° | 9km/h | 4219m | -4.3m/s | 4.1°C | 0% | 0hPa | 0V | 00:00:00 | 00:00:00 | 00:00:00 | |
| ARGUS2 | 2026-09-06 01:55:08 | 27.68459 | -82.71057 | 116° | 5km/h | 4398m | -4.5m/s | 2.8°C | 0% | 0hPa | 0V | 00:00:00 | 00:00:00 | 00:00:00 | |
| ARGUS2 | 2026-09-06 01:54:47 | 27.68476 | -82.71102 | 112° | 9km/h | 4489m | -4.6m/s | 2.1°C | 0% | 0hPa | 0V | 00:00:00 | 00:00:00 | 00:00:00 | |
| ARGUS2 | 2026-09-06 01:54:25 | 27.68491 | -82.71156 | 105° | 9km/h | 4587m | -4.4m/s | 1.3°C | 0% | 0hPa | 0V | 00:00:00 | 00:00:00 | 00:00:00 | |
| ARGUS2 | 2026-09-06 01:54:04 | 27.68510 | -82.71211 | 132° | 9km/h | 4686m | -4.5m/s | 0.6°C | 0% | 0hPa | 0V | 00:00:00 | 00:00:00 | 00:00:00 | |
| ARGUS2 | 2026-09-06 01:53:42 | 27.68548 | -82.71250 | 143° | 9km/h | 4779m | -4.3m/s | 0.1°C | 0% | 0hPa | 0V | 00:00:00 | 00:00:00 | 00:00:00 | |
| ARGUS2 | 2026-09-06 01:53:21 | 27.68586 | -82.71290 | 127° | 9km/h | 4871m | -4.2m/s | -0.5°C | 0% | 0hPa | 0V | 00:00:00 | 00:00:00 | 00:00:00 | |
| ARGUS2 | 2026-09-06 01:53:00 | 27.68607 | -82.71340 | 114° | 9km/h | 4964m | -4.5m/s | -0.9°C | 0% | 0hPa | 0V | 00:00:00 | 00:00:00 | 00:00:00 | |
| ARGUS2 | 2026-09-06 01:52:40 | 27.68634 | -82.71388 | 134° | 9km/h | 5057m | -4.4m/s | -1.5°C | 0% | 0hPa | 0V | 00:00:00 | 00:00:00 | 00:00:00 | |
| ARGUS2 | 2026-09-06 01:52:19 | 27.68674 | -82.71419 | 154° | 11km/h | 5144m | -4.3m/s | -1.8°C | 0% | 0hPa | 0V | 00:00:00 | 00:00:00 | 00:00:00 | |
| ARGUS2 | 2026-09-06 01:51:59 | 27.68729 | -82.71447 | 152° | 13km/h | 5236m | -4.4m/s | -2.3°C | 0% | 0hPa | 0V | 00:00:00 | 00:00:00 | 00:00:00 | |
| ARGUS2 | 2026-09-06 01:51:38 | 27.68788 | -82.71493 | 137° | 15km/h | 5327m | -4.5m/s | -3.0°C | 0% | 0hPa | 0V | 00:00:00 | 00:00:00 | 00:00:00 | |
| ARGUS2 | 2026-09-06 01:51:16 | 27.68836 | -82.71551 | 136° | 15km/h | 5418m | -4.3m/s | -3.8°C | 0% | 0hPa | 0V | 00:00:00 | 00:00:00 | 00:00:00 | |
| ARGUS2 | 2026-09-06 01:50:56 | 27.68897 | -82.71606 | 153° | 15km/h | 5508m | -4.2m/s | -4.3°C | 0% | 0hPa | 0V | 00:00:00 | 00:00:00 | 00:00:00 | |
| ARGUS2 | 2026-09-06 01:50:23 | 27.69010 | -82.71687 | 140° | 16km/h | 5652m | -4.3m/s | -4.9°C | 0% | 0hPa | 0V | 00:00:00 | 00:00:00 | 00:00:00 | |
| ARGUS2 | 2026-09-06 01:49:45 | 27.69130 | -82.71815 | 141° | 18km/h | 5818m | -4.4m/s | -6.3°C | 0% | 0hPa | 0V | 00:00:00 | 00:00:00 | 00:00:00 | |
| ARGUS2 | 2026-09-06 01:49:22 | 27.69206 | -82.71884 | 146° | 18km/h | 5915m | -4.4m/s | -6.9°C | 0% | 0hPa | 0V | 00:00:00 | 00:00:00 | 00:00:00 | |
| ARGUS2 | 2026-09-06 01:49:01 | 27.69277 | -82.71950 | 140° | 18km/h | 6010m | -4.3m/s | -7.6°C | 0% | 0hPa | 0V | 00:00:00 | 00:00:00 | 00:00:00 | |
| ARGUS2 | 2026-09-06 01:48:41 | 27.69355 | -82.72025 | 139° | 22km/h | 6104m | -4.4m/s | -8.0°C | 0% | 0hPa | 0V | 00:00:00 | 00:00:00 | 00:00:00 | |
| ARGUS2 | 2026-09-06 01:48:20 | 27.69434 | -82.72110 | 138° | 22km/h | 6195m | -4.7m/s | -8.4°C | 0% | 0hPa | 0V | 00:00:00 | 00:00:00 | 00:00:00 | |
| ARGUS2 | 2026-09-06 01:48:00 | 27.69516 | -82.72203 | 133° | 22km/h | 6290m | -4.6m/s | -9.1°C | 0% | 0hPa | 0V | 00:00:00 | 00:00:00 | 00:00:00 | |
| ARGUS2 | 2026-09-06 01:47:39 | 27.69580 | -82.72300 | 124° | 22km/h | 6383m | -4.2m/s | -9.5°C | 0% | 0hPa | 0V | 00:00:00 | 00:00:00 | 00:00:00 | |
| ARGUS2 | 2026-09-06 01:47:19 | 27.69642 | -82.72425 | 116° | 26km/h | 6477m | -4.3m/s | -10.0°C | 0% | 0hPa | 0V | 00:00:00 | 00:00:00 | 00:00:00 | |
| ARGUS2 | 2026-09-06 01:46:57 | 27.69699 | -82.72562 | 117° | 26km/h | 6569m | -4.4m/s | -10.8°C | 0% | 0hPa | 0V | 00:00:00 | 00:00:00 | 00:00:00 | |
| ARGUS2 | 2026-09-06 01:46:37 | 27.69759 | -82.72691 | 122° | 26km/h | 6657m | -4.4m/s | -11.4°C | 0% | 0hPa | 0V | 00:00:00 | 00:00:00 | 00:00:00 | |
| ARGUS2 | 2026-09-06 01:46:11 | 27.69838 | -82.72846 | 120° | 24km/h | 6770m | -4.4m/s | -12.0°C | 0% | 0hPa | 0V | 00:00:00 | 00:00:00 | 00:00:00 | |
| ARGUS2 | 2026-09-06 01:45:51 | 27.69893 | -82.72962 | 117° | 20km/h | 6862m | -4.7m/s | -12.3°C | 0% | 0hPa | 0V | 00:00:00 | 00:00:00 | 00:00:00 | |
| ARGUS2 | 2026-09-06 01:45:30 | 27.69940 | -82.73063 | 120° | 20km/h | 6951m | -4.4m/s | -12.8°C | 0% | 0hPa | 0V | 00:00:00 | 00:00:00 | 00:00:00 | |
| ARGUS2 | 2026-09-06 01:45:10 | 27.69989 | -82.73161 | 121° | 18km/h | 7045m | -4.6m/s | -13.3°C | 0% | 0hPa | 0V | 00:00:00 | 00:00:00 | 00:00:00 | |
| ARGUS2 | 2026-09-06 01:44:49 | 27.70029 | -82.73248 | 119° | 16km/h | 7137m | -4.5m/s | -13.9°C | 0% | 0hPa | 0V | 00:00:00 | 00:00:00 | 00:00:00 | |
| ARGUS2 | 2026-09-06 01:44:29 | 27.70073 | -82.73340 | 123° | 16km/h | 7232m | -4.7m/s | -14.7°C | 0% | 0hPa | 0V | 00:00:00 | 00:00:00 | 00:00:00 | |
| ARGUS2 | 2026-09-06 01:44:08 | 27.70123 | -82.73421 | 128° | 16km/h | 7327m | -5.1m/s | -15.1°C | 0% | 0hPa | 0V | 00:00:00 | 00:00:00 | 00:00:00 | |
| ARGUS2 | 2026-09-06 01:43:27 | 27.70259 | -82.73582 | 139° | 20km/h | 7522m | -4.8m/s | -16.1°C | 0% | 0hPa | 0V | 00:00:00 | 00:00:00 | 00:00:00 | |
| ARGUS2 | 2026-09-06 01:43:07 | 27.70339 | -82.73668 | 134° | 20km/h | 7625m | -5.1m/s | -16.6°C | 0% | 0hPa | 0V | 00:00:00 | 00:00:00 | 00:00:00 | |
| ARGUS2 | 2026-09-06 01:42:46 | 27.70412 | -82.73750 | 136° | 20km/h | 7726m | -5.0m/s | -17.0°C | 0% | 0hPa | 0V | 00:00:00 | 00:00:00 | 00:00:00 | |
| ARGUS2 | 2026-09-06 01:40:52 | 27.70572 | -82.74214 | 72° | 13km/h | 8323m | -5.5m/s | -20.9°C | 0% | 0hPa | 0V | 00:00:00 | 00:00:00 | 00:00:00 | |
| ARGUS2 | 2026-09-06 01:40:32 | 27.70547 | -82.74286 | 68° | 13km/h | 8435m | -5.5m/s | -21.9°C | 0% | 0hPa | 0V | 00:00:00 | 00:00:00 | 00:00:00 | |
| ARGUS2 | 2026-09-06 01:40:11 | 27.70516 | -82.74360 | 70° | 16km/h | 8541m | -5.1m/s | -22.7°C | 0% | 0hPa | 0V | 00:00:00 | 00:00:00 | 00:00:00 | |
| ARGUS2 | 2026-09-06 01:39:51 | 27.70498 | -82.74452 | 83° | 15km/h | 8651m | -5.3m/s | -23.3°C | 0% | 0hPa | 0V | 00:00:00 | 00:00:00 | 00:00:00 | |
| ARGUS2 | 2026-09-06 01:39:29 | 27.70484 | -82.74542 | 77° | 16km/h | 8760m | -5.2m/s | -24.2°C | 0% | 0hPa | 0V | 00:00:00 | 00:00:00 | 00:00:00 | |
| ARGUS2 | 2026-09-06 01:39:09 | 27.70461 | -82.74621 | 72° | 15km/h | 8864m | -5.4m/s | -24.8°C | 0% | 0hPa | 0V | 00:00:00 | 00:00:00 | 00:00:00 | |
| ARGUS2 | 2026-09-06 01:38:49 | 27.70442 | -82.74714 | 76° | 16km/h | 8973m | -5.2m/s | -25.6°C | 0% | 0hPa | 0V | 00:00:00 | 00:00:00 | 00:00:00 | |
| ARGUS2 | 2026-09-06 01:38:28 | 27.70411 | -82.74795 | 56° | 16km/h | 9075m | -5.2m/s | -26.2°C | 0% | 0hPa | 0V | 00:00:00 | 00:00:00 | 00:00:00 | |
| ARGUS2 | 2026-09-06 01:38:08 | 27.70351 | -82.74862 | 41° | 16km/h | 9180m | -4.9m/s | -27.0°C | 0% | 0hPa | 0V | 00:00:00 | 00:00:00 | 00:00:00 | |
| ARGUS2 | 2026-09-06 01:37:47 | 27.70282 | -82.74932 | 43° | 20km/h | 9278m | -4.9m/s | -27.4°C | 0% | 0hPa | 0V | 00:00:00 | 00:00:00 | 00:00:00 | |
| ARGUS2 | 2026-09-06 01:37:27 | 27.70202 | -82.75009 | 52° | 18km/h | 9382m | -4.9m/s | -27.0°C | 0% | 0hPa | 0V | 00:00:00 | 00:00:00 | 00:00:00 | |
| ARGUS2 | 2026-09-06 01:37:06 | 27.70152 | -82.75095 | 61° | 18km/h | 9479m | -5.2m/s | -27.6°C | 0% | 0hPa | 0V | 00:00:00 | 00:00:00 | 00:00:00 | |
| ARGUS2 | 2026-09-06 01:36:46 | 27.70105 | -82.75190 | 65° | 18km/h | 9584m | -4.9m/s | -28.6°C | 0% | 0hPa | 0V | 00:00:00 | 00:00:00 | 00:00:00 | |
| ARGUS2 | 2026-09-06 01:36:25 | 27.70073 | -82.75288 | 74° | 20km/h | 9684m | -5.1m/s | -29.5°C | 0% | 0hPa | 0V | 00:00:00 | 00:00:00 | 00:00:00 | |
| ARGUS2 | 2026-09-06 01:36:05 | 27.70056 | -82.75405 | 85° | 20km/h | 9788m | -4.9m/s | -30.4°C | 0% | 0hPa | 0V | 00:00:00 | 00:00:00 | 00:00:00 | |
| ARGUS2 | 2026-09-06 01:35:44 | 27.70047 | -82.75519 | 86° | 18km/h | 9892m | -5.2m/s | -31.3°C | 0% | 0hPa | 0V | 00:00:00 | 00:00:00 | 00:00:00 | |
| ARGUS2 | 2026-09-06 01:35:22 | 27.70029 | -82.75636 | 78° | 20km/h | 9998m | -5.2m/s | -32.2°C | 0% | 0hPa | 0V | 00:00:00 | 00:00:00 | 00:00:00 | |
| ARGUS2 | 2026-09-06 01:33:43 | 27.69891 | -82.76233 | 68° | 18km/h | 10539m | -5.5m/s | -36.2°C | 0% | 0hPa | 0V | 00:00:00 | 00:00:00 | 00:00:00 | |
| ARGUS2 | 2026-09-06 01:33:11 | 27.69841 | -82.76369 | 81° | 15km/h | 10717m | -5.9m/s | -37.4°C | 0% | 0hPa | 0V | 00:00:00 | 00:00:00 | 00:00:00 | |
| ARGUS2 | 2026-09-06 01:32:49 | 27.69820 | -82.76444 | 64° | 9km/h | 10847m | -6.3m/s | -38.3°C | 0% | 0hPa | 0V | 00:00:00 | 00:00:00 | 00:00:00 | |
| ARGUS2 | 2026-09-06 01:32:28 | 27.69791 | -82.76488 | 42° | 7km/h | 10972m | -6.2m/s | -39.3°C | 0% | 0hPa | 0V | 00:00:00 | 00:00:00 | 00:00:00 | |
| ARGUS2 | 2026-09-06 01:32:07 | 27.69758 | -82.76513 | 31° | 7km/h | 11099m | -6.2m/s | -40.3°C | 0% | 0hPa | 0V | 00:00:00 | 00:00:00 | 00:00:00 | |
| ARGUS2 | 2026-09-06 01:31:47 | 27.69716 | -82.76529 | 13° | 11km/h | 11222m | -6.2m/s | -41.3°C | 0% | 0hPa | 0V | 00:00:00 | 00:00:00 | 00:00:00 | |
| ARGUS2 | 2026-09-06 01:31:27 | 27.69666 | -82.76530 | 348° | 9km/h | 11350m | -5.9m/s | -42.3°C | 0% | 0hPa | 0V | 00:00:00 | 00:00:00 | 00:00:00 | |
| ARGUS2 | 2026-09-06 01:31:06 | 27.69617 | -82.76516 | 343° | 11km/h | 11472m | -5.9m/s | -43.3°C | 0% | 0hPa | 0V | 00:00:00 | 00:00:00 | 00:00:00 | |
| ARGUS2 | 2026-09-06 01:30:46 | 27.69562 | -82.76490 | 335° | 13km/h | 11600m | -6.3m/s | -44.5°C | 0% | 0hPa | 0V | 00:00:00 | 00:00:00 | 00:00:00 | |
| ARGUS2 | 2026-09-06 01:30:24 | 27.69492 | -82.76457 | 339° | 15km/h | 11725m | -5.8m/s | -45.5°C | 0% | 0hPa | 0V | 00:00:00 | 00:00:00 | 00:00:00 | |
| ARGUS2 | 2026-09-06 01:30:04 | 27.69415 | -82.76418 | 336° | 18km/h | 11836m | -5.8m/s | -46.5°C | 0% | 0hPa | 0V | 00:00:00 | 00:00:00 | 00:00:00 | |
| ARGUS2 | 2026-09-06 01:29:43 | 27.69330 | -82.76369 | 334° | 18km/h | 11955m | -5.6m/s | -47.5°C | 0% | 0hPa | 0V | 00:00:00 | 00:00:00 | 00:00:00 | |
| ARGUS2 | 2026-09-06 01:29:23 | 27.69244 | -82.76331 | 345° | 18km/h | 12063m | -5.4m/s | -48.3°C | 0% | 0hPa | 0V | 00:00:00 | 00:00:00 | 00:00:00 | |
| ARGUS2 | 2026-09-06 01:29:03 | 27.69138 | -82.76311 | 349° | 20km/h | 12173m | -5.4m/s | -48.9°C | 0% | 0hPa | 0V | 00:00:00 | 00:00:00 | 00:00:00 | |
| ARGUS2 | 2026-09-06 01:28:42 | 27.69042 | -82.76287 | 348° | 18km/h | 12273m | -5.3m/s | -49.6°C | 0% | 0hPa | 0V | 00:00:00 | 00:00:00 | 00:00:00 | |
| ARGUS2 | 2026-09-06 01:28:22 | 27.68942 | -82.76243 | 329° | 20km/h | 12382m | -5.5m/s | -50.5°C | 0% | 0hPa | 0V | 00:00:00 | 00:00:00 | 00:00:00 | |
| ARGUS2 | 2026-09-06 01:28:01 | 27.68852 | -82.76179 | 325° | 22km/h | 12495m | -5.7m/s | -51.4°C | 0% | 0hPa | 0V | 00:00:00 | 00:00:00 | 00:00:00 | |
| ARGUS2 | 2026-09-06 01:27:41 | 27.68756 | -82.76108 | 327° | 20km/h | 12616m | -5.5m/s | -52.5°C | 0% | 0hPa | 0V | 00:00:00 | 00:00:00 | 00:00:00 | |
| ARGUS2 | 2026-09-06 01:27:20 | 27.68662 | -82.76040 | 329° | 20km/h | 12729m | -5.3m/s | -53.5°C | 0% | 0hPa | 0V | 00:00:00 | 00:00:00 | 00:00:00 | |
| ARGUS2 | 2026-09-06 01:27:00 | 27.68564 | -82.75975 | 334° | 22km/h | 12839m | -5.5m/s | -54.5°C | 0% | 0hPa | 0V | 00:00:00 | 00:00:00 | 00:00:00 | |
| ARGUS2 | 2026-09-06 01:26:39 | 27.68469 | -82.75916 | 327° | 20km/h | 12945m | -5.8m/s | -55.4°C | 0% | 0hPa | 0V | 00:00:00 | 00:00:00 | 00:00:00 | |
| ARGUS2 | 2026-09-06 01:26:19 | 27.68382 | -82.75834 | 313° | 24km/h | 13066m | -5.9m/s | -56.2°C | 0% | 0hPa | 0V | 00:00:00 | 00:00:00 | 00:00:00 | |
| ARGUS2 | 2026-09-06 01:25:58 | 27.68299 | -82.75732 | 320° | 24km/h | 13184m | -6.0m/s | -57.0°C | 0% | 0hPa | 0V | 00:00:00 | 00:00:00 | 00:00:00 | |
| ARGUS2 | 2026-09-06 01:25:38 | 27.68195 | -82.75656 | 332° | 26km/h | 13309m | -6.3m/s | -57.8°C | 0% | 0hPa | 0V | 00:00:00 | 00:00:00 | 00:00:00 | |
| ARGUS2 | 2026-09-06 01:25:16 | 27.68078 | -82.75607 | 353° | 22km/h | 13435m | -6.1m/s | -58.6°C | 0% | 0hPa | 0V | 00:00:00 | 00:00:00 | 00:00:00 | |
| ARGUS2 | 2026-09-06 01:24:56 | 27.67969 | -82.75590 | 351° | 20km/h | 13558m | -6.2m/s | -59.4°C | 0% | 0hPa | 0V | 00:00:00 | 00:00:00 | 00:00:00 | |
| ARGUS2 | 2026-09-06 01:24:35 | 27.67878 | -82.75558 | 336° | 16km/h | 13692m | -6.4m/s | -60.5°C | 0% | 0hPa | 0V | 00:00:00 | 00:00:00 | 00:00:00 | |
| ARGUS2 | 2026-09-06 01:24:15 | 27.67799 | -82.75529 | 355° | 18km/h | 13820m | -6.0m/s | -61.3°C | 0% | 0hPa | 0V | 00:00:00 | 00:00:00 | 00:00:00 | |
| ARGUS2 | 2026-09-06 01:23:54 | 27.67703 | -82.75523 | 6° | 20km/h | 13954m | -6.8m/s | -62.5°C | 0% | 0hPa | 0V | 00:00:00 | 00:00:00 | 00:00:00 | |
| ARGUS2 | 2026-09-06 01:23:34 | 27.67617 | -82.75532 | 5° | 18km/h | 14086m | -6.3m/s | -62.7°C | 0% | 0hPa | 0V | 00:00:00 | 00:00:00 | 00:00:00 | |
| ARGUS2 | 2026-09-06 01:23:13 | 27.67528 | -82.75548 | 18° | 15km/h | 14227m | -6.7m/s | -63.4°C | 0% | 0hPa | 0V | 00:00:00 | 00:00:00 | 00:00:00 | |
| ARGUS2 | 2026-09-06 01:22:53 | 27.67465 | -82.75576 | 29° | 13km/h | 14361m | -6.7m/s | -63.4°C | 0% | 0hPa | 0V | 00:00:00 | 00:00:00 | 00:00:00 | |
| ARGUS2 | 2026-09-06 01:22:32 | 27.67403 | -82.75600 | 11° | 15km/h | 14502m | -6.6m/s | -64.3°C | 0% | 0hPa | 0V | 00:00:00 | 00:00:00 | 00:00:00 | |
| ARGUS2 | 2026-09-06 01:22:12 | 27.67329 | -82.75616 | 7° | 16km/h | 14637m | -6.7m/s | -65.4°C | 0% | 0hPa | 0V | 00:00:00 | 00:00:00 | 00:00:00 | |
| ARGUS2 | 2026-09-06 01:21:52 | 27.67248 | -82.75629 | 9° | 15km/h | 14781m | -6.9m/s | -66.6°C | 0% | 0hPa | 0V | 00:00:00 | 00:00:00 | 00:00:00 | |
| ARGUS2 | 2026-09-06 01:21:31 | 27.67158 | -82.75645 | 16° | 18km/h | 14919m | -6.7m/s | -67.4°C | 0% | 0hPa | 0V | 00:00:00 | 00:00:00 | 00:00:00 | |
| ARGUS2 | 2026-09-06 01:21:11 | 27.67076 | -82.75681 | 13° | 16km/h | 15060m | -6.6m/s | -68.3°C | 0% | 0hPa | 0V | 00:00:00 | 00:00:00 | 00:00:00 | |
| ARGUS2 | 2026-09-06 01:20:50 | 27.67001 | -82.75707 | 22° | 15km/h | 15193m | -6.7m/s | -68.9°C | 0% | 0hPa | 0V | 00:00:00 | 00:00:00 | 00:00:00 | |
| ARGUS2 | 2026-09-06 01:20:30 | 27.66924 | -82.75738 | 18° | 15km/h | 15341m | -7.4m/s | -69.7°C | 0% | 0hPa | 0V | 00:00:00 | 00:00:00 | 00:00:00 | |
| ARGUS2 | 2026-09-06 01:20:08 | 27.66845 | -82.75742 | 356° | 16km/h | 15491m | -7.3m/s | -70.1°C | 0% | 0hPa | 0V | 00:00:00 | 00:00:00 | 00:00:00 | |
| ARGUS2 | 2026-09-06 01:19:48 | 27.66792 | -82.75779 | 70° | 9km/h | 15634m | -7.3m/s | -69.7°C | 0% | 0hPa | 0V | 00:00:00 | 00:00:00 | 00:00:00 | |
| ARGUS2 | 2026-09-06 01:19:27 | 27.66792 | -82.75826 | 128° | 11km/h | 15789m | -7.4m/s | -70.8°C | 0% | 0hPa | 0V | 00:00:00 | 00:00:00 | 00:00:00 | |
| ARGUS2 | 2026-09-06 01:19:07 | 27.66851 | -82.75860 | 168° | 22km/h | 15934m | -7.4m/s | -71.7°C | 0% | 0hPa | 0V | 00:00:00 | 00:00:00 | 00:00:00 | |
| ARGUS2 | 2026-09-06 01:18:46 | 27.66963 | -82.75849 | 201° | 20km/h | 16095m | -7.6m/s | -72.5°C | 0% | 0hPa | 0V | 00:00:00 | 00:00:00 | 00:00:00 | |
| ARGUS2 | 2026-09-06 01:18:26 | 27.67038 | -82.75787 | 235° | 13km/h | 16252m | -8.0m/s | -72.6°C | 0% | 0hPa | 0V | 00:00:00 | 00:00:00 | 00:00:00 | |
| ARGUS2 | 2026-09-06 01:18:06 | 27.67089 | -82.75777 | 178° | 13km/h | 16421m | -8.3m/s | -71.3°C | 0% | 0hPa | 0V | 00:00:00 | 00:00:00 | 00:00:00 | |
| ARGUS2 | 2026-09-06 01:17:45 | 27.67176 | -82.75779 | 168° | 18km/h | 16584m | -8.1m/s | -71.3°C | 0% | 0hPa | 0V | 00:00:00 | 00:00:00 | 00:00:00 | |
| ARGUS2 | 2026-09-06 01:17:25 | 27.67260 | -82.75838 | 133° | 20km/h | 16756m | -7.8m/s | -70.3°C | 0% | 0hPa | 0V | 00:00:00 | 00:00:00 | 00:00:00 | |
| ARGUS2 | 2026-09-06 01:17:04 | 27.67348 | -82.75861 | 193° | 26km/h | 16923m | -8.8m/s | -69.6°C | 0% | 0hPa | 0V | 00:00:00 | 00:00:00 | 00:00:00 | |
| ARGUS2 | 2026-09-06 01:16:44 | 27.67510 | -82.75771 | 221° | 42km/h | 17107m | -9.0m/s | -70.2°C | 0% | 0hPa | 0V | 00:00:00 | 00:00:00 | 00:00:00 | |
| ARGUS2 | 2026-09-06 01:16:23 | 27.67658 | -82.75603 | 230° | 38km/h | 17282m | -8.7m/s | -70.7°C | 0% | 0hPa | 0V | 00:00:00 | 00:00:00 | 00:00:00 | |
| ARGUS2 | 2026-09-06 01:16:03 | 27.67754 | -82.75502 | 208° | 20km/h | 17462m | -8.7m/s | -69.4°C | 0% | 0hPa | 0V | 00:00:00 | 00:00:00 | 00:00:00 | |
| ARGUS2 | 2026-09-06 01:15:42 | 27.67855 | -82.75430 | 216° | 22km/h | 17639m | -8.6m/s | -69.3°C | 0% | 0hPa | 0V | 00:00:00 | 00:00:00 | 00:00:00 | |
| ARGUS2 | 2026-09-06 01:15:22 | 27.67994 | -82.75396 | 193° | 33km/h | 17829m | -9.1m/s | -68.2°C | 0% | 0hPa | 0V | 00:00:00 | 00:00:00 | 00:00:00 | |
| ARGUS2 | 2026-09-06 01:15:01 | 27.68166 | -82.75278 | 223° | 46km/h | 18012m | -9.3m/s | -68.2°C | 0% | 0hPa | 0V | 00:00:00 | 00:00:00 | 00:00:00 | |
| ARGUS2 | 2026-09-06 01:14:41 | 27.68306 | -82.75068 | 246° | 47km/h | 18205m | -9.4m/s | -69.1°C | 0% | 0hPa | 0V | 00:00:00 | 00:00:00 | 00:00:00 | |
| ARGUS2 | 2026-09-06 01:14:19 | 27.68295 | -82.74840 | 303° | 33km/h | 18400m | -9.6m/s | -67.0°C | 0% | 0hPa | 0V | 00:00:00 | 00:00:00 | 00:00:00 | |
| ARGUS2 | 2026-09-06 01:13:59 | 27.68218 | -82.74756 | 320° | 5km/h | 18589m | -8.8m/s | -67.0°C | 0% | 0hPa | 0V | 00:00:00 | 00:00:00 | 00:00:00 | |
| ARGUS2 | 2026-09-06 01:13:39 | 27.68271 | -82.74750 | 211° | 15km/h | 18786m | -8.7m/s | -64.5°C | 0% | 0hPa | 0V | 00:00:00 | 00:00:00 | 00:00:00 | |
| ARGUS2 | 2026-09-06 01:13:18 | 27.68352 | -82.74665 | 247° | 20km/h | 18977m | -9.6m/s | -63.6°C | 0% | 0hPa | 0V | 00:00:00 | 00:00:00 | 00:00:00 | |
| ARGUS2 | 2026-09-06 01:12:57 | 27.68320 | -82.74552 | 305° | 11km/h | 19191m | -10.3m/s | -63.2°C | 0% | 0hPa | 0V | 00:00:00 | 00:00:00 | 00:00:00 | |
| ARGUS2 | 2026-09-06 01:12:38 | 27.68305 | -82.74471 | 305° | 18km/h | 19393m | -10.5m/s | -62.0°C | 0% | 0hPa | 0V | 00:00:00 | 00:00:00 | 00:00:00 | |
| ARGUS2 | 2026-09-06 01:12:17 | 27.68204 | -82.74421 | 14° | 22km/h | 19617m | -10.2m/s | -61.8°C | 0% | 0hPa | 0V | 00:00:00 | 00:00:00 | 00:00:00 | |
| ARGUS2 | 2026-09-06 01:11:56 | 27.68101 | -82.74426 | 347° | 15km/h | 19827m | -10.1m/s | -61.6°C | 0% | 0hPa | 0V | 00:00:00 | 00:00:00 | 00:00:00 | |
| ARGUS2 | 2026-09-06 01:11:36 | 27.68022 | -82.74372 | 304° | 15km/h | 20049m | -9.9m/s | -61.8°C | 0% | 0hPa | 0V | 00:00:00 | 00:00:00 | 00:00:00 | |
| ARGUS2 | 2026-09-06 01:11:15 | 27.67986 | -82.74277 | 274° | 13km/h | 20264m | -10.9m/s | -61.9°C | 0% | 0hPa | 0V | 00:00:00 | 00:00:00 | 00:00:00 | |
| ARGUS2 | 2026-09-06 01:10:54 | 27.68004 | -82.74184 | 265° | 22km/h | 20497m | -11.4m/s | -60.1°C | 0% | 0hPa | 0V | 00:00:00 | 00:00:00 | 00:00:00 | |
| ARGUS2 | 2026-09-06 01:10:34 | 27.67985 | -82.74051 | 293° | 16km/h | 20722m | -11.7m/s | -60.4°C | 0% | 0hPa | 0V | 00:00:00 | 00:00:00 | 00:00:00 | |
| ARGUS2 | 2026-09-06 01:10:14 | 27.68011 | -82.73948 | 267° | 24km/h | 20965m | -11.7m/s | -59.3°C | 0% | 0hPa | 0V | 00:00:00 | 00:00:00 | 00:00:00 | |
| ARGUS2 | 2026-09-06 01:09:53 | 27.68068 | -82.73856 | 227° | 31km/h | 21202m | -12.3m/s | -57.5°C | 0% | 0hPa | 0V | 00:00:00 | 00:00:00 | 00:00:00 | |
| ARGUS2 | 2026-09-06 01:09:33 | 27.68138 | -82.73717 | 253° | 31km/h | 21460m | -12.8m/s | -57.3°C | 0% | 0hPa | 0V | 00:00:00 | 00:00:00 | 00:00:00 | |
| ARGUS2 | 2026-09-06 01:09:11 | 27.68212 | -82.73542 | 239° | 33km/h | 21733m | -13.3m/s | -57.5°C | 0% | 0hPa | 0V | 00:00:00 | 00:00:00 | 00:00:00 | |
| ARGUS2 | 2026-09-06 01:08:51 | 27.68258 | -82.73374 | 267° | 29km/h | 21993m | -12.5m/s | -57.9°C | 0% | 0hPa | 0V | 00:00:00 | 00:00:00 | 00:00:00 | |
| ARGUS2 | 2026-09-06 01:08:31 | 27.68293 | -82.73198 | 258° | 27km/h | 22257m | -12.7m/s | -56.9°C | 0% | 0hPa | 0V | 00:00:00 | 00:00:00 | 00:00:00 | |
| ARGUS2 | 2026-09-06 01:08:10 | 27.68325 | -82.73054 | 262° | 24km/h | 22506m | -12.6m/s | -55.0°C | 0% | 0hPa | 0V | 00:00:00 | 00:00:00 | 00:00:00 | |
| ARGUS2 | 2026-09-06 01:07:49 | 27.68399 | -82.72874 | 250° | 44km/h | 22774m | -12.3m/s | -54.7°C | 0% | 0hPa | 0V | 00:00:00 | 00:00:00 | 00:00:00 | |
| ARGUS2 | 2026-09-06 01:07:29 | 27.68463 | -82.72672 | 266° | 29km/h | 23026m | -13.0m/s | -56.1°C | 0% | 0hPa | 0V | 00:00:00 | 00:00:00 | 00:00:00 | |
| ARGUS2 | 2026-09-06 01:07:09 | 27.68526 | -82.72464 | 243° | 55km/h | 23301m | -11.9m/s | -56.3°C | 0% | 0hPa | 0V | 00:00:00 | 00:00:00 | 00:00:00 | |
| ARGUS2 | 2026-09-06 01:06:48 | 27.68626 | -82.72160 | 259° | 53km/h | 23563m | -13.5m/s | -56.4°C | 0% | 0hPa | 0V | 00:00:00 | 00:00:00 | 00:00:00 | |
| ARGUS2 | 2026-09-06 01:06:28 | 27.68601 | -82.71890 | 290° | 42km/h | 23861m | -14.9m/s | -55.9°C | 0% | 0hPa | 0V | 00:00:00 | 00:00:00 | 00:00:00 | |
| ARGUS2 | 2026-09-06 01:06:07 | 27.68534 | -82.71655 | 278° | 47km/h | 24158m | -15.4m/s | -55.7°C | 0% | 0hPa | 0V | 00:00:00 | 00:00:00 | 00:00:00 | |
| ARGUS2 | 2026-09-06 01:05:47 | 27.68437 | -82.71384 | 305° | 44km/h | 24477m | -15.8m/s | -55.3°C | 0% | 0hPa | 0V | 00:00:00 | 00:00:00 | 00:00:00 | |
| ARGUS2 | 2026-09-06 01:05:26 | 27.68338 | -82.71131 | 298° | 49km/h | 24786m | -15.8m/s | -55.8°C | 0% | 0hPa | 0V | 00:00:00 | 00:00:00 | 00:00:00 | |
| ARGUS2 | 2026-09-06 01:05:06 | 27.68213 | -82.70939 | 303° | 26km/h | 25122m | -16.9m/s | -55.7°C | 0% | 0hPa | 0V | 00:00:00 | 00:00:00 | 00:00:00 | |
| ARGUS2 | 2026-09-06 01:04:45 | 27.68200 | -82.70775 | 270° | 40km/h | 25463m | -17.8m/s | -54.8°C | 0% | 0hPa | 0V | 00:00:00 | 00:00:00 | 00:00:00 | |
| ARGUS2 | 2026-09-06 01:04:25 | 27.68156 | -82.70508 | 260° | 46km/h | 25823m | -18.9m/s | -51.5°C | 0% | 0hPa | 0V | 00:00:00 | 00:00:00 | 00:00:00 | |
| ARGUS2 | 2026-09-06 01:04:04 | 27.68158 | -82.70317 | 253° | 47km/h | 26190m | -17.4m/s | -50.3°C | 0% | 0hPa | 0V | 00:00:00 | 00:00:00 | 00:00:00 | |
| ARGUS2 | 2026-09-06 01:03:22 | 27.68294 | -82.69670 | 242° | 35km/h | 26970m | -16.8m/s | -47.3°C | 0% | 0hPa | 0V | 00:00:00 | 00:00:00 | 00:00:00 | |
| ARGUS2 | 2026-09-06 01:03:02 | 27.68360 | -82.69313 | 287° | 99km/h | 27332m | -18.2m/s | -46.9°C | 0% | 0hPa | 0V | 00:00:00 | 00:00:00 | 00:00:00 | |
| ARGUS2 | 2026-09-06 01:02:41 | 27.68326 | -82.69047 | 255° | 80km/h | 27724m | -18.6m/s | -45.2°C | 0% | 0hPa | 0V | 00:00:00 | 00:00:00 | 00:00:00 | |
| ARGUS2 | 2026-09-06 01:02:21 | 27.68338 | -82.68882 | 183° | 51km/h | 28114m | -21.6m/s | -45.2°C | 0% | 0hPa | 0V | 00:00:00 | 00:00:00 | 00:00:00 | |
| ARGUS2 | 2026-09-06 01:02:01 | 27.68504 | -82.68768 | 179° | 58km/h | 28546m | -21.0m/s | -46.0°C | 0% | 0hPa | 0V | 00:00:00 | 00:00:00 | 00:00:00 | |
| ARGUS2 | 2026-09-06 01:01:40 | 27.68681 | -82.68462 | 249° | 31km/h | 28985m | -23.5m/s | -46.7°C | 0% | 0hPa | 0V | 00:00:00 | 00:00:00 | 00:00:00 | |
| ARGUS2 | 2026-09-06 01:01:20 | 27.68719 | -82.68116 | 268° | 89km/h | 29472m | -22.7m/s | -46.8°C | 0% | 0hPa | 0V | 00:00:00 | 00:00:00 | 00:00:00 | |
| ARGUS2 | 2026-09-06 01:00:59 | 27.68764 | -82.67850 | 271° | 47km/h | 29969m | -25.0m/s | -44.6°C | 0% | 0hPa | 0V | 00:00:00 | 00:00:00 | 00:00:00 | |
| ARGUS2 | 2026-09-06 01:00:39 | 27.68879 | -82.67560 | 240° | 62km/h | 30507m | -25.9m/s | -43.5°C | 0% | 0hPa | 0V | 00:00:00 | 00:00:00 | 00:00:00 | |
| ARGUS2 | 2026-09-06 01:00:18 | 27.68938 | -82.67280 | 274° | 62km/h | 31042m | -26.1m/s | -43.4°C | 0% | 0hPa | 0V | 00:00:00 | 00:00:00 | 00:00:00 | |
| ARGUS2 | 2026-09-06 00:59:58 | 27.68954 | -82.66971 | 259° | 51km/h | 31609m | -27.0m/s | -43.9°C | 0% | 0hPa | 0V | 00:00:00 | 00:00:00 | 00:00:00 | |
| ARGUS2 | 2026-09-06 00:59:36 | 27.68975 | -82.66708 | 252° | 51km/h | 32205m | -28.6m/s | -42.6°C | 0% | 0hPa | 0V | 00:00:00 | 00:00:00 | 00:00:00 | |
| ARGUS2 | 2026-09-06 00:59:15 | 27.69054 | -82.66464 | 251° | 49km/h | 32831m | -31.2m/s | -41.9°C | 0% | 0hPa | 0V | 00:00:00 | 00:00:00 | 00:00:00 | |
| ARGUS2 | 2026-09-06 00:58:54 | 27.69117 | -82.66107 | 274° | 46km/h | 33529m | -31.8m/s | -42.8°C | 0% | 0hPa | 0V | 00:00:00 | 00:00:00 | 00:00:00 | |
| ARGUS2 | 2026-09-06 00:58:34 | 27.69108 | -82.65822 | 268° | 18km/h | 34179m | -31.0m/s | -41.2°C | 0% | 0hPa | 0V | 00:00:00 | 00:00:00 | 00:00:00 | |
| ARGUS2 | 2026-09-06 00:58:12 | 27.69153 | -82.65466 | 270° | 68km/h | 34984m | -47.2m/s | -38.9°C | 0% | 0hPa | 0V | 00:00:00 | 00:00:00 | 00:00:00 | |
| ARGUS2 | 2026-09-06 00:57:51 | 27.69097 | -82.65210 | 237° | 62km/h | 35326m | 7.7m/s | -38.9°C | 0% | 0hPa | 0V | 00:00:00 | 00:00:00 | 00:00:00 | |
| ARGUS2 | 2026-09-06 00:57:30 | 27.69076 | -82.64925 | 330° | 38km/h | 35195m | 2.5m/s | -39.1°C | 0% | 0hPa | 0V | 00:00:00 | 00:00:00 | 00:00:00 | |
| ARGUS2 | 2026-09-06 00:57:10 | 27.69029 | -82.64558 | 291° | 115km/h | 35057m | 5.0m/s | -39.2°C | 0% | 0hPa | 0V | 00:00:00 | 00:00:00 | 00:00:00 | |
| ARGUS2 | 2026-09-06 00:56:48 | 27.69009 | -82.64252 | 234° | 78km/h | 34920m | 2.2m/s | -39.2°C | 0% | 0hPa | 0V | 00:00:00 | 00:00:00 | 00:00:00 | |
| ARGUS2 | 2026-09-06 00:56:28 | 27.68988 | -82.63960 | 303° | 88km/h | 34764m | 3.6m/s | -39.0°C | 0% | 0hPa | 0V | 00:00:00 | 00:00:00 | 00:00:00 | |
| ARGUS2 | 2026-09-06 00:56:07 | 27.69001 | -82.63614 | 273° | 111km/h | 34623m | 6.3m/s | -39.1°C | 0% | 0hPa | 0V | 00:00:00 | 00:00:00 | 00:00:00 | |
| ARGUS2 | 2026-09-06 00:55:47 | 27.69064 | -82.63208 | 211° | 31km/h | 34461m | 4.0m/s | -39.0°C | 0% | 0hPa | 0V | 00:00:00 | 00:00:00 | 00:00:00 | |
| ARGUS2 | 2026-09-06 00:55:03 | 27.69122 | -82.62524 | 311° | 4km/h | 34152m | 1.8m/s | -37.6°C | 0% | 0hPa | 0V | 00:00:00 | 00:00:00 | 00:00:00 | |
| ARGUS2 | 2026-09-06 00:54:40 | 27.69086 | -82.62253 | 255° | 84km/h | 34013m | 4.0m/s | -38.6°C | 0% | 0hPa | 0V | 00:00:00 | 00:00:00 | 00:00:00 | |
| ARGUS2 | 2026-09-06 00:54:19 | 27.69075 | -82.62023 | 237° | 38km/h | 33881m | 1.1m/s | -39.7°C | 0% | 0hPa | 0V | 00:00:00 | 00:00:00 | 00:00:00 | |
| ARGUS2 | 2026-09-06 00:53:54 | 27.69050 | -82.61617 | 234° | 80km/h | 33775m | 4.8m/s | -40.3°C | 0% | 0hPa | 0V | 00:00:00 | 00:00:00 | 00:00:00 | |
| ARGUS2 | 2026-09-06 00:53:34 | 27.69098 | -82.61317 | 246° | 49km/h | 33663m | 1.1m/s | -41.6°C | 0% | 0hPa | 0V | 00:00:00 | 00:00:00 | 00:00:00 | |
| ARGUS2 | 2026-09-06 00:53:11 | 27.69090 | -82.60953 | 253° | 53km/h | 33568m | 8.3m/s | -42.1°C | 0% | 0hPa | 0V | 00:00:00 | 00:00:00 | 00:00:00 | |
| ARGUS2 | 2026-09-06 00:52:49 | 27.69145 | -82.60673 | 233° | 38km/h | 33469m | -0.4m/s | -42.0°C | 0% | 0hPa | 0V | 00:00:00 | 00:00:00 | 00:00:00 | |
| ARGUS2 | 2026-09-06 00:52:27 | 27.69197 | -82.60330 | 271° | 91km/h | 33354m | 1.6m/s | -42.3°C | 0% | 0hPa | 0V | 00:00:00 | 00:00:00 | 00:00:00 | |
| ARGUS2 | 2026-09-06 00:52:07 | 27.69297 | -82.59949 | 233° | 80km/h | 33245m | 10.3m/s | -41.9°C | 0% | 0hPa | 0V | 00:00:00 | 00:00:00 | 00:00:00 | |
| ARGUS2 | 2026-09-06 00:51:47 | 27.69412 | -82.59552 | 244° | 71km/h | 33121m | 5.5m/s | -42.5°C | 0% | 0hPa | 0V | 00:00:00 | 00:00:00 | 00:00:00 | |
| ARGUS2 | 2026-09-06 00:51:26 | 27.69554 | -82.59162 | 267° | 84km/h | 32983m | 2.6m/s | -42.2°C | 0% | 0hPa | 0V | 00:00:00 | 00:00:00 | 00:00:00 | |
| ARGUS2 | 2026-09-06 00:51:04 | 27.69692 | -82.58845 | 215° | 58km/h | 32844m | 12.4m/s | -41.9°C | 0% | 0hPa | 0V | 00:00:00 | 00:00:00 | 00:00:00 | |
| ARGUS2 | 2026-09-06 00:50:44 | 27.69790 | -82.58644 | 295° | 26km/h | 32702m | 5.9m/s | -41.8°C | 0% | 0hPa | 0V | 00:00:00 | 00:00:00 | 00:00:00 | |
| ARGUS2 | 2026-09-06 00:50:20 | 27.69867 | -82.58336 | 249° | 64km/h | 32543m | 6.0m/s | -42.1°C | 0% | 0hPa | 0V | 00:00:00 | 00:00:00 | 00:00:00 | |
| ARGUS2 | 2026-09-06 00:50:00 | 27.69984 | -82.58063 | 219° | 33km/h | 32400m | 8.5m/s | -41.9°C | 0% | 0hPa | 0V | 00:00:00 | 00:00:00 | 00:00:00 | |
| ARGUS2 | 2026-09-06 00:49:40 | 27.70115 | -82.57796 | 260° | 75km/h | 32255m | 9.4m/s | -41.8°C | 0% | 0hPa | 0V | 00:00:00 | 00:00:00 | 00:00:00 | |
| ARGUS2 | 2026-09-06 00:49:19 | 27.70219 | -82.57506 | 237° | 68km/h | 32127m | 5.9m/s | -41.5°C | 0% | 0hPa | 0V | 00:00:00 | 00:00:00 | 00:00:00 | |
| ARGUS2 | 2026-09-06 00:48:58 | 27.70299 | -82.57239 | 258° | 18km/h | 31979m | 3.5m/s | -41.4°C | 0% | 0hPa | 0V | 00:00:00 | 00:00:00 | 00:00:00 | |
| ARGUS2 | 2026-09-06 00:48:39 | 27.70323 | -82.56962 | 272° | 73km/h | 31844m | 5.6m/s | -41.9°C | 0% | 0hPa | 0V | 00:00:00 | 00:00:00 | 00:00:00 | |
| ARGUS2 | 2026-09-06 00:48:18 | 27.70332 | -82.56687 | 245° | 22km/h | 31701m | 2.4m/s | -42.4°C | 0% | 0hPa | 0V | 00:00:00 | 00:00:00 | 00:00:00 | |
| ARGUS2 | 2026-09-06 00:47:57 | 27.70330 | -82.56440 | 275° | 60km/h | 31564m | 9.9m/s | -42.4°C | 0% | 0hPa | 0V | 00:00:00 | 00:00:00 | 00:00:00 | |
| ARGUS2 | 2026-09-06 00:47:37 | 27.70343 | -82.56157 | 252° | 38km/h | 31415m | 8.5m/s | -42.4°C | 0% | 0hPa | 0V | 00:00:00 | 00:00:00 | 00:00:00 | |
| ARGUS2 | 2026-09-06 00:47:16 | 27.70349 | -82.55911 | 274° | 64km/h | 31273m | 8.2m/s | -42.2°C | 0% | 0hPa | 0V | 00:00:00 | 00:00:00 | 00:00:00 | |
| ARGUS2 | 2026-09-06 00:46:56 | 27.70368 | -82.55616 | 250° | 58km/h | 31120m | 7.7m/s | -41.9°C | 0% | 0hPa | 0V | 00:00:00 | 00:00:00 | 00:00:00 | |
| ARGUS2 | 2026-09-06 00:46:35 | 27.70398 | -82.55347 | 272° | 49km/h | 30964m | 8.1m/s | -42.3°C | 0% | 0hPa | 0V | 00:00:00 | 00:00:00 | 00:00:00 | |
| ARGUS2 | 2026-09-06 00:45:54 | 27.70349 | -82.54819 | 275° | 58km/h | 30662m | 9.9m/s | -42.9°C | 0% | 0hPa | 0V | 00:00:00 | 00:00:00 | 00:00:00 | |
| ARGUS2 | 2026-09-06 00:45:33 | 27.70377 | -82.54542 | 244° | 53km/h | 30530m | 11.3m/s | -43.2°C | 0% | 0hPa | 0V | 00:00:00 | 00:00:00 | 00:00:00 | |
| ARGUS2 | 2026-09-06 00:45:13 | 27.70454 | -82.54262 | 257° | 53km/h | 30391m | 8.4m/s | -43.5°C | 0% | 0hPa | 0V | 00:00:00 | 00:00:00 | 00:00:00 | |
| ARGUS2 | 2026-09-06 00:44:52 | 27.70484 | -82.53965 | 253° | 42km/h | 30271m | 9.4m/s | -43.9°C | 0% | 0hPa | 0V | 00:00:00 | 00:00:00 | 00:00:00 | |
| ARGUS2 | 2026-09-06 00:44:31 | 27.70458 | -82.53694 | 295° | 60km/h | 30140m | 7.7m/s | -44.4°C | 0% | 0hPa | 0V | 00:00:00 | 00:00:00 | 00:00:00 | |
| ARGUS2 | 2026-09-06 00:44:11 | 27.70374 | -82.53419 | 268° | 47km/h | 30022m | 8.9m/s | -45.3°C | 0% | 0hPa | 0V | 00:00:00 | 00:00:00 | 00:00:00 | |
| ARGUS2 | 2026-09-06 00:43:51 | 27.70348 | -82.53130 | 270° | 57km/h | 29895m | 5.8m/s | -46.4°C | 0% | 0hPa | 0V | 00:00:00 | 00:00:00 | 00:00:00 | |
| ARGUS2 | 2026-09-06 00:43:30 | 27.70325 | -82.52746 | 247° | 55km/h | 29772m | -0.1m/s | -47.0°C | 0% | 0hPa | 0V | 00:00:00 | 00:00:00 | 00:00:00 | |
| ARGUS2 | 2026-09-06 00:43:08 | 27.70308 | -82.52408 | 259° | 46km/h | 29644m | 10.4m/s | -47.7°C | 0% | 0hPa | 0V | 00:00:00 | 00:00:00 | 00:00:00 | |
| ARGUS2 | 2026-09-06 00:42:47 | 27.70330 | -82.52145 | 252° | 84km/h | 29523m | 3.9m/s | -47.4°C | 0% | 0hPa | 0V | 00:00:00 | 00:00:00 | 00:00:00 | |
| ARGUS2 | 2026-09-06 00:42:27 | 27.70316 | -82.51810 | 268° | 84km/h | 29401m | 6.0m/s | -47.0°C | 0% | 0hPa | 0V | 00:00:00 | 00:00:00 | 00:00:00 | |
| ARGUS2 | 2026-09-06 00:42:05 | 27.70325 | -82.51414 | 267° | 78km/h | 29285m | 4.8m/s | -47.6°C | 0% | 0hPa | 0V | 00:00:00 | 00:00:00 | 00:00:00 | |
| ARGUS2 | 2026-09-06 00:41:44 | 27.70419 | -82.51003 | 252° | 62km/h | 29162m | 9.0m/s | -49.9°C | 0% | 0hPa | 0V | 00:00:00 | 00:00:00 | 00:00:00 | |
| ARGUS2 | 2026-09-06 00:41:23 | 27.70583 | -82.50601 | 242° | 62km/h | 29030m | 8.4m/s | -49.1°C | 0% | 0hPa | 0V | 00:00:00 | 00:00:00 | 00:00:00 | |
| ARGUS2 | 2026-09-06 00:41:03 | 27.70764 | -82.50271 | 271° | 60km/h | 28887m | 5.3m/s | -48.1°C | 0% | 0hPa | 0V | 00:00:00 | 00:00:00 | 00:00:00 | |
| ARGUS2 | 2026-09-06 00:40:42 | 27.70949 | -82.49991 | 237° | 42km/h | 28753m | 9.0m/s | -47.7°C | 0% | 0hPa | 0V | 00:00:00 | 00:00:00 | 00:00:00 | |
| ARGUS2 | 2026-09-06 00:40:22 | 27.71136 | -82.49808 | 225° | 35km/h | 28614m | 8.6m/s | -47.3°C | 0% | 0hPa | 0V | 00:00:00 | 00:00:00 | 00:00:00 | |
| ARGUS2 | 2026-09-06 00:40:01 | 27.71282 | -82.49704 | 220° | 44km/h | 28477m | 8.8m/s | -46.8°C | 0% | 0hPa | 0V | 00:00:00 | 00:00:00 | 00:00:00 | |
| ARGUS2 | 2026-09-06 00:39:41 | 27.71400 | -82.49615 | 220° | 22km/h | 28335m | 9.2m/s | -46.8°C | 0% | 0hPa | 0V | 00:00:00 | 00:00:00 | 00:00:00 | |
| ARGUS2 | 2026-09-06 00:39:20 | 27.71476 | -82.49516 | 291° | 24km/h | 28188m | 6.7m/s | -46.9°C | 0% | 0hPa | 0V | 00:00:00 | 00:00:00 | 00:00:00 | |
| ARGUS2 | 2026-09-06 00:39:00 | 27.71516 | -82.49364 | 255° | 24km/h | 28035m | 6.9m/s | -46.7°C | 0% | 0hPa | 0V | 00:00:00 | 00:00:00 | 00:00:00 | |
| ARGUS2 | 2026-09-06 00:38:39 | 27.71555 | -82.49167 | 259° | 55km/h | 27893m | 5.4m/s | -46.5°C | 0% | 0hPa | 0V | 00:00:00 | 00:00:00 | 00:00:00 | |
| ARGUS2 | 2026-09-06 00:38:18 | 27.71522 | -82.48956 | 257° | 38km/h | 27751m | 8.3m/s | -47.6°C | 0% | 0hPa | 0V | 00:00:00 | 00:00:00 | 00:00:00 | |
| ARGUS2 | 2026-09-06 00:37:58 | 27.71510 | -82.48731 | 264° | 42km/h | 27607m | 7.1m/s | -48.1°C | 0% | 0hPa | 0V | 00:00:00 | 00:00:00 | 00:00:00 | |
| ARGUS2 | 2026-09-06 00:37:37 | 27.71505 | -82.48514 | 298° | 51km/h | 27481m | 4.7m/s | -49.0°C | 0% | 0hPa | 0V | 00:00:00 | 00:00:00 | 00:00:00 | |
| ARGUS2 | 2026-09-06 00:37:16 | 27.71502 | -82.48201 | 286° | 46km/h | 27344m | 6.1m/s | -49.2°C | 0% | 0hPa | 0V | 00:00:00 | 00:00:00 | 00:00:00 | |
| ARGUS2 | 2026-09-06 00:36:56 | 27.71539 | -82.47912 | 267° | 68km/h | 27224m | 5.9m/s | -48.7°C | 0% | 0hPa | 0V | 00:00:00 | 00:00:00 | 00:00:00 | |
| ARGUS2 | 2026-09-06 00:36:36 | 27.71625 | -82.47635 | 256° | 66km/h | 27088m | 5.4m/s | -48.3°C | 0% | 0hPa | 0V | 00:00:00 | 00:00:00 | 00:00:00 | |
| ARGUS2 | 2026-09-06 00:36:15 | 27.71714 | -82.47354 | 255° | 77km/h | 26971m | 6.8m/s | -47.8°C | 0% | 0hPa | 0V | 00:00:00 | 00:00:00 | 00:00:00 | |
| ARGUS2 | 2026-09-06 00:35:54 | 27.71842 | -82.47046 | 266° | 60km/h | 26851m | 7.1m/s | -48.3°C | 0% | 0hPa | 0V | 00:00:00 | 00:00:00 | 00:00:00 | |
| ARGUS2 | 2026-09-06 00:35:34 | 27.71878 | -82.46812 | 269° | 40km/h | 26732m | 5.8m/s | -48.6°C | 0% | 0hPa | 0V | 00:00:00 | 00:00:00 | 00:00:00 | |
| ARGUS2 | 2026-09-06 00:35:14 | 27.71895 | -82.46624 | 283° | 42km/h | 26610m | 8.3m/s | -49.0°C | 0% | 0hPa | 0V | 00:00:00 | 00:00:00 | 00:00:00 | |
| ARGUS2 | 2026-09-06 00:34:53 | 27.71940 | -82.46423 | 248° | 31km/h | 26483m | 6.9m/s | -49.9°C | 0% | 0hPa | 0V | 00:00:00 | 00:00:00 | 00:00:00 | |
| ARGUS2 | 2026-09-06 00:34:33 | 27.72029 | -82.46252 | 233° | 26km/h | 26345m | 6.5m/s | -50.0°C | 0% | 0hPa | 0V | 00:00:00 | 00:00:00 | 00:00:00 | |
| ARGUS2 | 2026-09-06 00:34:12 | 27.72105 | -82.46104 | 221° | 24km/h | 26209m | 6.8m/s | -50.1°C | 0% | 0hPa | 0V | 00:00:00 | 00:00:00 | 00:00:00 | |
| ARGUS2 | 2026-09-06 00:33:52 | 27.72160 | -82.45957 | 183° | 9km/h | 26067m | 6.6m/s | -50.0°C | 0% | 0hPa | 0V | 00:00:00 | 00:00:00 | 00:00:00 | |
| ARGUS2 | 2026-09-06 00:33:32 | 27.72193 | -82.45879 | 276° | 2km/h | 25932m | 8.2m/s | -50.8°C | 0% | 0hPa | 0V | 00:00:00 | 00:00:00 | 00:00:00 | |
| ARGUS2 | 2026-09-06 00:33:11 | 27.72180 | -82.45737 | 249° | 38km/h | 25794m | 6.3m/s | -51.3°C | 0% | 0hPa | 0V | 00:00:00 | 00:00:00 | 00:00:00 | |
| ARGUS2 | 2026-09-06 00:32:50 | 27.72182 | -82.45537 | 268° | 37km/h | 25662m | 5.5m/s | -53.8°C | 0% | 0hPa | 0V | 00:00:00 | 00:00:00 | 00:00:00 | |
| ARGUS2 | 2026-09-06 00:32:29 | 27.72166 | -82.45311 | 277° | 44km/h | 25546m | 4.6m/s | -54.5°C | 0% | 0hPa | 0V | 00:00:00 | 00:00:00 | 00:00:00 | |
| ARGUS2 | 2026-09-06 00:32:09 | 27.72178 | -82.45126 | 256° | 31km/h | 25435m | 3.8m/s | -54.8°C | 0% | 0hPa | 0V | 00:00:00 | 00:00:00 | 00:00:00 | |
| ARGUS2 | 2026-09-06 00:31:48 | 27.72228 | -82.45021 | 237° | 22km/h | 25331m | 5.9m/s | -55.3°C | 0% | 0hPa | 0V | 00:00:00 | 00:00:00 | 00:00:00 | |
| ARGUS2 | 2026-09-06 00:31:28 | 27.72230 | -82.44908 | 280° | 27km/h | 25227m | 5.0m/s | -55.3°C | 0% | 0hPa | 0V | 00:00:00 | 00:00:00 | 00:00:00 | |
| ARGUS2 | 2026-09-06 00:31:07 | 27.72196 | -82.44807 | 307° | 37km/h | 25125m | 5.6m/s | -55.1°C | 0% | 0hPa | 0V | 00:00:00 | 00:00:00 | 00:00:00 | |
| ARGUS2 | 2026-09-06 00:30:47 | 27.72109 | -82.44701 | 355° | 35km/h | 25012m | 4.4m/s | -55.3°C | 0% | 0hPa | 0V | 00:00:00 | 00:00:00 | 00:00:00 | |
| ARGUS2 | 2026-09-06 00:30:26 | 27.71972 | -82.44605 | 327° | 42km/h | 24904m | 4.1m/s | -55.0°C | 0% | 0hPa | 0V | 00:00:00 | 00:00:00 | 00:00:00 | |
| ARGUS2 | 2026-09-06 00:30:05 | 27.71841 | -82.44440 | 310° | 64km/h | 24781m | 5.0m/s | -54.6°C | 0% | 0hPa | 0V | 00:00:00 | 00:00:00 | 00:00:00 | |
| ARGUS2 | 2026-09-06 00:29:45 | 27.71722 | -82.44226 | 297° | 44km/h | 24665m | 6.5m/s | -54.0°C | 0% | 0hPa | 0V | 00:00:00 | 00:00:00 | 00:00:00 | |
| ARGUS2 | 2026-09-06 00:29:25 | 27.71614 | -82.43969 | 300° | 38km/h | 24533m | 4.6m/s | -54.1°C | 0% | 0hPa | 0V | 00:00:00 | 00:00:00 | 00:00:00 | |
| ARGUS2 | 2026-09-06 00:29:04 | 27.71541 | -82.43736 | 318° | 40km/h | 24404m | 5.0m/s | -53.6°C | 0% | 0hPa | 0V | 00:00:00 | 00:00:00 | 00:00:00 | |
| ARGUS2 | 2026-09-06 00:28:44 | 27.71440 | -82.43494 | 299° | 42km/h | 24277m | 4.3m/s | -53.7°C | 0% | 0hPa | 0V | 00:00:00 | 00:00:00 | 00:00:00 | |
| ARGUS2 | 2026-09-06 00:28:23 | 27.71378 | -82.43225 | 280° | 51km/h | 24160m | 4.6m/s | -53.1°C | 0% | 0hPa | 0V | 00:00:00 | 00:00:00 | 00:00:00 | |
| ARGUS2 | 2026-09-06 00:28:03 | 27.71353 | -82.42902 | 274° | 51km/h | 24039m | 5.9m/s | -53.9°C | 0% | 0hPa | 0V | 00:00:00 | 00:00:00 | 00:00:00 | |
| ARGUS2 | 2026-09-06 00:27:41 | 27.71346 | -82.42608 | 278° | 51km/h | 23925m | 5.8m/s | -53.8°C | 0% | 0hPa | 0V | 00:00:00 | 00:00:00 | 00:00:00 | |
| ARGUS2 | 2026-09-06 00:27:21 | 27.71332 | -82.42352 | 282° | 44km/h | 23823m | 5.6m/s | -53.8°C | 0% | 0hPa | 0V | 00:00:00 | 00:00:00 | 00:00:00 | |
| ARGUS2 | 2026-09-06 00:27:00 | 27.71287 | -82.42114 | 284° | 40km/h | 23715m | 4.0m/s | -53.9°C | 0% | 0hPa | 0V | 00:00:00 | 00:00:00 | 00:00:00 | |
| ARGUS2 | 2026-09-06 00:26:40 | 27.71218 | -82.41897 | 288° | 49km/h | 23616m | 4.4m/s | -54.0°C | 0% | 0hPa | 0V | 00:00:00 | 00:00:00 | 00:00:00 | |
| ARGUS2 | 2026-09-06 00:26:20 | 27.71179 | -82.41655 | 298° | 51km/h | 23512m | 6.5m/s | -54.6°C | 0% | 0hPa | 0V | 00:00:00 | 00:00:00 | 00:00:00 | |
| ARGUS2 | 2026-09-06 00:25:59 | 27.71153 | -82.41401 | 274° | 49km/h | 23407m | 6.1m/s | -54.8°C | 0% | 0hPa | 0V | 00:00:00 | 00:00:00 | 00:00:00 | |
| ARGUS2 | 2026-09-06 00:25:39 | 27.71234 | -82.41114 | 255° | 62km/h | 23283m | 5.2m/s | -55.4°C | 0% | 0hPa | 0V | 00:00:00 | 00:00:00 | 00:00:00 | |
| ARGUS2 | 2026-09-06 00:25:18 | 27.71362 | -82.40837 | 254° | 55km/h | 23156m | 5.3m/s | -54.7°C | 0% | 0hPa | 0V | 00:00:00 | 00:00:00 | 00:00:00 | |
| ARGUS2 | 2026-09-06 00:24:58 | 27.71465 | -82.40594 | 245° | 53km/h | 23017m | 7.0m/s | -54.1°C | 0% | 0hPa | 0V | 00:00:00 | 00:00:00 | 00:00:00 | |
| ARGUS2 | 2026-09-06 00:24:37 | 27.71530 | -82.40407 | 253° | 37km/h | 22887m | 7.6m/s | -54.6°C | 0% | 0hPa | 0V | 00:00:00 | 00:00:00 | 00:00:00 | |
| ARGUS2 | 2026-09-06 00:24:16 | 27.71594 | -82.40227 | 233° | 38km/h | 22751m | 6.8m/s | -53.9°C | 0% | 0hPa | 0V | 00:00:00 | 00:00:00 | 00:00:00 | |
| ARGUS2 | 2026-09-06 00:23:56 | 27.71698 | -82.40058 | 218° | 46km/h | 22633m | 6.4m/s | -54.1°C | 0% | 0hPa | 0V | 00:00:00 | 00:00:00 | 00:00:00 | |
| ARGUS2 | 2026-09-06 00:23:36 | 27.71811 | -82.39922 | 223° | 27km/h | 22517m | 6.1m/s | -54.0°C | 0% | 0hPa | 0V | 00:00:00 | 00:00:00 | 00:00:00 | |
| ARGUS2 | 2026-09-06 00:23:15 | 27.71858 | -82.39780 | 243° | 22km/h | 22414m | 5.4m/s | -54.9°C | 0% | 0hPa | 0V | 00:00:00 | 00:00:00 | 00:00:00 | |
| ARGUS2 | 2026-09-06 00:22:55 | 27.71936 | -82.39623 | 284° | 27km/h | 22313m | 3.7m/s | -55.7°C | 0% | 0hPa | 0V | 00:00:00 | 00:00:00 | 00:00:00 | |
| ARGUS2 | 2026-09-06 00:22:33 | 27.71974 | -82.39447 | 273° | 38km/h | 22221m | 5.0m/s | -56.3°C | 0% | 0hPa | 0V | 00:00:00 | 00:00:00 | 00:00:00 | |
| ARGUS2 | 2026-09-06 00:22:13 | 27.72010 | -82.39246 | 255° | 47km/h | 22131m | 4.0m/s | -56.5°C | 0% | 0hPa | 0V | 00:00:00 | 00:00:00 | 00:00:00 | |
| ARGUS2 | 2026-09-06 00:21:52 | 27.72050 | -82.38997 | 268° | 53km/h | 22032m | 2.5m/s | -57.0°C | 0% | 0hPa | 0V | 00:00:00 | 00:00:00 | 00:00:00 | |
| ARGUS2 | 2026-09-06 00:21:32 | 27.72101 | -82.38758 | 284° | 49km/h | 21932m | 4.7m/s | -57.1°C | 0% | 0hPa | 0V | 00:00:00 | 00:00:00 | 00:00:00 | |
| ARGUS2 | 2026-09-06 00:21:11 | 27.72112 | -82.38486 | 270° | 47km/h | 21825m | 5.6m/s | -56.9°C | 0% | 0hPa | 0V | 00:00:00 | 00:00:00 | 00:00:00 | |
| ARGUS2 | 2026-09-06 00:20:51 | 27.72151 | -82.38226 | 246° | 46km/h | 21714m | 5.4m/s | -57.0°C | 0% | 0hPa | 0V | 00:00:00 | 00:00:00 | 00:00:00 | |
| ARGUS2 | 2026-09-06 00:20:31 | 27.72197 | -82.37972 | 267° | 57km/h | 21595m | 6.3m/s | -57.1°C | 0% | 0hPa | 0V | 00:00:00 | 00:00:00 | 00:00:00 | |
| ARGUS2 | 2026-09-06 00:20:10 | 27.72239 | -82.37716 | 265° | 42km/h | 21479m | 6.2m/s | -57.2°C | 0% | 0hPa | 0V | 00:00:00 | 00:00:00 | 00:00:00 | |
| ARGUS2 | 2026-09-06 00:19:49 | 27.72278 | -82.37455 | 263° | 38km/h | 21359m | 6.1m/s | -57.7°C | 0% | 0hPa | 0V | 00:00:00 | 00:00:00 | 00:00:00 | |
| ARGUS2 | 2026-09-06 00:19:29 | 27.72326 | -82.37253 | 263° | 31km/h | 21254m | 6.3m/s | -57.9°C | 0% | 0hPa | 0V | 00:00:00 | 00:00:00 | 00:00:00 | |
| ARGUS2 | 2026-09-06 00:19:08 | 27.72398 | -82.37083 | 281° | 31km/h | 21150m | 3.3m/s | -58.3°C | 0% | 0hPa | 0V | 00:00:00 | 00:00:00 | 00:00:00 | |
| ARGUS2 | 2026-09-06 00:18:48 | 27.72428 | -82.36947 | 271° | 31km/h | 21056m | 4.3m/s | -58.9°C | 0% | 0hPa | 0V | 00:00:00 | 00:00:00 | 00:00:00 | |
| ARGUS2 | 2026-09-06 00:18:27 | 27.72423 | -82.36758 | 245° | 18km/h | 20956m | 5.8m/s | -59.7°C | 0% | 0hPa | 0V | 00:00:00 | 00:00:00 | 00:00:00 | |
| ARGUS2 | 2026-09-06 00:18:07 | 27.72445 | -82.36611 | 219° | 20km/h | 20861m | 2.6m/s | -60.0°C | 0% | 0hPa | 0V | 00:00:00 | 00:00:00 | 00:00:00 | |
| ARGUS2 | 2026-09-06 00:17:47 | 27.72456 | -82.36468 | 273° | 24km/h | 20769m | 5.3m/s | -60.4°C | 0% | 0hPa | 0V | 00:00:00 | 00:00:00 | 00:00:00 | |
| ARGUS2 | 2026-09-06 00:17:25 | 27.72400 | -82.36322 | 307° | 37km/h | 20678m | 4.1m/s | -60.0°C | 0% | 0hPa | 0V | 00:00:00 | 00:00:00 | 00:00:00 | |
| ARGUS2 | 2026-09-06 00:17:05 | 27.72334 | -82.36169 | 301° | 38km/h | 20587m | 5.2m/s | -59.7°C | 0% | 0hPa | 0V | 00:00:00 | 00:00:00 | 00:00:00 | |
| ARGUS2 | 2026-09-06 00:16:44 | 27.72294 | -82.35969 | 269° | 26km/h | 20494m | 5.1m/s | -59.6°C | 0% | 0hPa | 0V | 00:00:00 | 00:00:00 | 00:00:00 | |
| ARGUS2 | 2026-09-06 00:16:24 | 27.72301 | -82.35794 | 244° | 20km/h | 20405m | 4.2m/s | -60.5°C | 0% | 0hPa | 0V | 00:00:00 | 00:00:00 | 00:00:00 | |
| ARGUS2 | 2026-09-06 00:16:03 | 27.72336 | -82.35692 | 274° | 20km/h | 20314m | 3.7m/s | -61.7°C | 0% | 0hPa | 0V | 00:00:00 | 00:00:00 | 00:00:00 | |
| ARGUS2 | 2026-09-06 00:15:43 | 27.72329 | -82.35596 | 294° | 22km/h | 20225m | 5.4m/s | -61.9°C | 0% | 0hPa | 0V | 00:00:00 | 00:00:00 | 00:00:00 | |
| ARGUS2 | 2026-09-06 00:15:23 | 27.72304 | -82.35470 | 292° | 16km/h | 20129m | 4.9m/s | -62.1°C | 0% | 0hPa | 0V | 00:00:00 | 00:00:00 | 00:00:00 | |
| ARGUS2 | 2026-09-06 00:14:42 | 27.72212 | -82.35324 | 309° | 7km/h | 19931m | 4.5m/s | -62.1°C | 0% | 0hPa | 0V | 00:00:00 | 00:00:00 | 00:00:00 | |
| ARGUS2 | 2026-09-06 00:14:21 | 27.72160 | -82.35292 | 359° | 15km/h | 19833m | 5.0m/s | -62.9°C | 0% | 0hPa | 0V | 00:00:00 | 00:00:00 | 00:00:00 | |
| ARGUS2 | 2026-09-06 00:14:00 | 27.72052 | -82.35269 | 340° | 26km/h | 19721m | 6.2m/s | -62.8°C | 0% | 0hPa | 0V | 00:00:00 | 00:00:00 | 00:00:00 | |
| ARGUS2 | 2026-09-06 00:13:41 | 27.71934 | -82.35228 | 334° | 33km/h | 19617m | 4.5m/s | -62.6°C | 0% | 0hPa | 0V | 00:00:00 | 00:00:00 | 00:00:00 | |
| ARGUS2 | 2026-09-06 00:13:20 | 27.71825 | -82.35140 | 322° | 24km/h | 19513m | 4.2m/s | -63.0°C | 0% | 0hPa | 0V | 00:00:00 | 00:00:00 | 00:00:00 | |
| ARGUS2 | 2026-09-06 00:12:59 | 27.71795 | -82.35048 | 274° | 24km/h | 19409m | 5.3m/s | -63.2°C | 0% | 0hPa | 0V | 00:00:00 | 00:00:00 | 00:00:00 | |
| ARGUS2 | 2026-09-06 00:12:39 | 27.71801 | -82.34973 | 330° | 5km/h | 19305m | 5.9m/s | -63.9°C | 0% | 0hPa | 0V | 00:00:00 | 00:00:00 | 00:00:00 | |
| ARGUS2 | 2026-09-06 00:12:18 | 27.71767 | -82.34888 | 288° | 18km/h | 19202m | 4.4m/s | -64.0°C | 0% | 0hPa | 0V | 00:00:00 | 00:00:00 | 00:00:00 | |
| ARGUS2 | 2026-09-06 00:11:57 | 27.71756 | -82.34762 | 246° | 16km/h | 19110m | 4.4m/s | -64.6°C | 0% | 0hPa | 0V | 00:00:00 | 00:00:00 | 00:00:00 | |
| ARGUS2 | 2026-09-06 00:11:36 | 27.71836 | -82.34658 | 223° | 29km/h | 19006m | 5.8m/s | -65.3°C | 0% | 0hPa | 0V | 00:00:00 | 00:00:00 | 00:00:00 | |
| ARGUS2 | 2026-09-06 00:10:56 | 27.71985 | -82.34592 | 146° | 18km/h | 18810m | 4.7m/s | -66.7°C | 0% | 0hPa | 0V | 00:00:00 | 00:00:00 | 00:00:00 | |
| ARGUS2 | 2026-09-06 00:10:35 | 27.72041 | -82.34635 | 127° | 9km/h | 18700m | 3.7m/s | -67.4°C | 0% | 0hPa | 0V | 00:00:00 | 00:00:00 | 00:00:00 | |
| ARGUS2 | 2026-09-06 00:10:15 | 27.72018 | -82.34651 | 330° | 11km/h | 18582m | 5.7m/s | -67.1°C | 0% | 0hPa | 0V | 00:00:00 | 00:00:00 | 00:00:00 | |
| ARGUS2 | 2026-09-06 00:09:54 | 27.71959 | -82.34589 | 304° | 18km/h | 18469m | 4.6m/s | -66.6°C | 0% | 0hPa | 0V | 00:00:00 | 00:00:00 | 00:00:00 | |
| ARGUS2 | 2026-09-06 00:09:33 | 27.71879 | -82.34473 | 310° | 24km/h | 18359m | 5.4m/s | -66.0°C | 0% | 0hPa | 0V | 00:00:00 | 00:00:00 | 00:00:00 | |
| ARGUS2 | 2026-09-06 00:09:13 | 27.71813 | -82.34306 | 277° | 29km/h | 18260m | 4.3m/s | -66.0°C | 0% | 0hPa | 0V | 00:00:00 | 00:00:00 | 00:00:00 | |
| ARGUS2 | 2026-09-06 00:08:53 | 27.71790 | -82.34075 | 285° | 49km/h | 18151m | 6.7m/s | -66.3°C | 0% | 0hPa | 0V | 00:00:00 | 00:00:00 | 00:00:00 | |
| ARGUS2 | 2026-09-06 00:08:32 | 27.71844 | -82.33857 | 214° | 40km/h | 18026m | 7.5m/s | -66.8°C | 0% | 0hPa | 0V | 00:00:00 | 00:00:00 | 00:00:00 | |
| ARGUS2 | 2026-09-06 00:08:11 | 27.71999 | -82.33714 | 206° | 57km/h | 17878m | 4.7m/s | -66.4°C | 0% | 0hPa | 0V | 00:00:00 | 00:00:00 | 00:00:00 | |
| ARGUS2 | 2026-09-06 00:07:51 | 27.72205 | -82.33644 | 177° | 35km/h | 17771m | 6.4m/s | -66.5°C | 0% | 0hPa | 0V | 00:00:00 | 00:00:00 | 00:00:00 | |
| ARGUS2 | 2026-09-06 00:07:31 | 27.72367 | -82.33651 | 182° | 26km/h | 17666m | 3.9m/s | -68.2°C | 0% | 0hPa | 0V | 00:00:00 | 00:00:00 | 00:00:00 | |
| ARGUS2 | 2026-09-06 00:07:10 | 27.72493 | -82.33656 | 211° | 27km/h | 17571m | 4.8m/s | -68.9°C | 0% | 0hPa | 0V | 00:00:00 | 00:00:00 | 00:00:00 | |
| ARGUS2 | 2026-09-06 00:06:50 | 27.72615 | -82.33593 | 213° | 24km/h | 17471m | 5.3m/s | -69.3°C | 0% | 0hPa | 0V | 00:00:00 | 00:00:00 | 00:00:00 | |
| ARGUS2 | 2026-09-06 00:06:29 | 27.72716 | -82.33543 | 199° | 16km/h | 17371m | 5.7m/s | -68.9°C | 0% | 0hPa | 0V | 00:00:00 | 00:00:00 | 00:00:00 | |
| ARGUS2 | 2026-09-06 00:06:10 | 27.72814 | -82.33514 | 207° | 20km/h | 17279m | 5.0m/s | -69.5°C | 0% | 0hPa | 0V | 00:00:00 | 00:00:00 | 00:00:00 | |
| ARGUS2 | 2026-09-06 00:05:48 | 27.72941 | -82.33429 | 204° | 29km/h | 17175m | 5.6m/s | -70.2°C | 0% | 0hPa | 0V | 00:00:00 | 00:00:00 | 00:00:00 | |
| ARGUS2 | 2026-09-06 00:05:27 | 27.73123 | -82.33349 | 207° | 38km/h | 17086m | 4.7m/s | -70.0°C | 0% | 0hPa | 0V | 00:00:00 | 00:00:00 | 00:00:00 | |
| ARGUS2 | 2026-09-06 00:05:07 | 27.73328 | -82.33306 | 192° | 35km/h | 16987m | 6.0m/s | -69.5°C | 0% | 0hPa | 0V | 00:00:00 | 00:00:00 | 00:00:00 | |
| ARGUS2 | 2026-09-06 00:04:47 | 27.73485 | -82.33283 | 188° | 27km/h | 16887m | 5.2m/s | -69.4°C | 0% | 0hPa | 0V | 00:00:00 | 00:00:00 | 00:00:00 | |
| ARGUS2 | 2026-09-06 00:04:26 | 27.73573 | -82.33310 | 134° | 22km/h | 16792m | 5.7m/s | -69.9°C | 0% | 0hPa | 0V | 00:00:00 | 00:00:00 | 00:00:00 | |
| ARGUS2 | 2026-09-06 00:04:06 | 27.73623 | -82.33400 | 146° | 11km/h | 16709m | 4.2m/s | -71.2°C | 0% | 0hPa | 0V | 00:00:00 | 00:00:00 | 00:00:00 | |
| ARGUS2 | 2026-09-06 00:03:45 | 27.73684 | -82.33456 | 147° | 24km/h | 16627m | 3.5m/s | -72.1°C | 0% | 0hPa | 0V | 00:00:00 | 00:00:00 | 00:00:00 | |
| ARGUS2 | 2026-09-06 00:03:26 | 27.73738 | -82.33492 | 164° | 18km/h | 16543m | 3.3m/s | -72.5°C | 0% | 0hPa | 0V | 00:00:00 | 00:00:00 | 00:00:00 | |
| ARGUS2 | 2026-09-06 00:03:13 | 27.73758 | -82.33515 | 39° | 5km/h | 16455m | 3.5m/s | -73.0°C | 0% | 0hPa | 0V | 00:00:00 | 00:00:00 | 00:00:00 | |
| ARGUS2 | 2026-09-06 00:02:53 | 27.73790 | -82.33492 | 284° | 11km/h | 16366m | 4.1m/s | -73.5°C | 0% | 0hPa | 0V | 00:00:00 | 00:00:00 | 00:00:00 | |
| ARGUS2 | 2026-09-06 00:02:24 | 27.73856 | -82.33436 | 226° | 24km/h | 16270m | 5.7m/s | -73.2°C | 0% | 0hPa | 0V | 00:00:00 | 00:00:00 | 00:00:00 | |
| ARGUS2 | 2026-09-06 00:01:45 | 27.74073 | -82.33351 | 190° | 16km/h | 16075m | 5.9m/s | -72.2°C | 0% | 0hPa | 0V | 00:00:00 | 00:00:00 | 00:00:00 | |
| ARGUS2 | 2026-09-06 00:01:24 | 27.74145 | -82.33356 | 172° | 16km/h | 15972m | 6.4m/s | -71.6°C | 0% | 0hPa | 0V | 00:00:00 | 00:00:00 | 00:00:00 | |
| ARGUS2 | 2026-09-06 00:01:01 | 27.74181 | -82.33380 | 38° | 13km/h | 15874m | 3.8m/s | -70.9°C | 0% | 0hPa | 0V | 00:00:00 | 00:00:00 | 00:00:00 | |
| ARGUS2 | 2026-09-06 00:00:44 | 27.74177 | -82.33408 | 13° | 13km/h | 15769m | 5.8m/s | -70.1°C | 0% | 0hPa | 0V | 00:00:00 | 00:00:00 | 00:00:00 | |
| ARGUS2 | 2026-09-06 00:00:21 | 27.74147 | -82.33440 | 40° | 18km/h | 15671m | 4.9m/s | -69.4°C | 0% | 0hPa | 0V | 00:00:00 | 00:00:00 | 00:00:00 | |
| ARGUS2 | 2026-09-05 23:59:59 | 27.74072 | -82.33462 | 16° | 33km/h | 15576m | 4.7m/s | -69.6°C | 0% | 0hPa | 0V | 00:00:00 | 00:00:00 | 00:00:00 | |
| ARGUS2 | 2026-09-05 23:59:38 | 27.73990 | -82.33418 | 339° | 18km/h | 15474m | 5.0m/s | -70.0°C | 0% | 0hPa | 0V | 00:00:00 | 00:00:00 | 00:00:00 | |
| ARGUS2 | 2026-09-05 23:59:18 | 27.73902 | -82.33346 | 329° | 22km/h | 15382m | 4.8m/s | -69.9°C | 0% | 0hPa | 0V | 00:00:00 | 00:00:00 | 00:00:00 | |
| ARGUS2 | 2026-09-05 23:58:57 | 27.73801 | -82.33251 | 342° | 27km/h | 15293m | 5.4m/s | -69.4°C | 0% | 0hPa | 0V | 00:00:00 | 00:00:00 | 00:00:00 | |
| ARGUS2 | 2026-09-05 23:58:37 | 27.73704 | -82.33155 | 320° | 20km/h | 15201m | 3.9m/s | -69.0°C | 0% | 0hPa | 0V | 00:00:00 | 00:00:00 | 00:00:00 | |
| ARGUS2 | 2026-09-05 23:58:16 | 27.73620 | -82.33066 | 306° | 22km/h | 15110m | 6.1m/s | -68.4°C | 0% | 0hPa | 0V | 00:00:00 | 00:00:00 | 00:00:00 | |
| ARGUS2 | 2026-09-05 23:57:56 | 27.73556 | -82.32957 | 300° | 18km/h | 15013m | 5.3m/s | -67.8°C | 0% | 0hPa | 0V | 00:00:00 | 00:00:00 | 00:00:00 | |
| ARGUS2 | 2026-09-05 23:57:36 | 27.73490 | -82.32861 | 328° | 15km/h | 14918m | 5.8m/s | -67.2°C | 0% | 0hPa | 0V | 00:00:00 | 00:00:00 | 00:00:00 | |
| ARGUS2 | 2026-09-05 23:57:15 | 27.73404 | -82.32761 | 317° | 16km/h | 14817m | 5.1m/s | -66.3°C | 0% | 0hPa | 0V | 00:00:00 | 00:00:00 | 00:00:00 | |
| ARGUS2 | 2026-09-05 23:56:55 | 27.73317 | -82.32673 | 306° | 27km/h | 14722m | 4.9m/s | -65.7°C | 0% | 0hPa | 0V | 00:00:00 | 00:00:00 | 00:00:00 | |
| ARGUS2 | 2026-09-05 23:56:34 | 27.73243 | -82.32585 | 314° | 22km/h | 14622m | 4.1m/s | -65.2°C | 0% | 0hPa | 0V | 00:00:00 | 00:00:00 | 00:00:00 | |
| ARGUS2 | 2026-09-05 23:56:13 | 27.73195 | -82.32531 | 320° | 13km/h | 14524m | 4.5m/s | -64.5°C | 0% | 0hPa | 0V | 00:00:00 | 00:00:00 | 00:00:00 | |
| ARGUS2 | 2026-09-05 23:55:52 | 27.73170 | -82.32479 | 306° | 7km/h | 14431m | 4.3m/s | -63.8°C | 0% | 0hPa | 0V | 00:00:00 | 00:00:00 | 00:00:00 | |
| ARGUS2 | 2026-09-05 23:55:32 | 27.73136 | -82.32410 | 321° | 15km/h | 14336m | 5.2m/s | -63.3°C | 0% | 0hPa | 0V | 00:00:00 | 00:00:00 | 00:00:00 | |
| ARGUS2 | 2026-09-05 23:55:11 | 27.73092 | -82.32348 | 334° | 15km/h | 14248m | 3.8m/s | -63.0°C | 0% | 0hPa | 0V | 00:00:00 | 00:00:00 | 00:00:00 | |
| ARGUS2 | 2026-09-05 23:54:51 | 27.73040 | -82.32293 | 333° | 13km/h | 14159m | 4.2m/s | -62.9°C | 0% | 0hPa | 0V | 00:00:00 | 00:00:00 | 00:00:00 | |
| ARGUS2 | 2026-09-05 23:54:30 | 27.72981 | -82.32271 | 334° | 4km/h | 14077m | 3.7m/s | -62.9°C | 0% | 0hPa | 0V | 00:00:00 | 00:00:00 | 00:00:00 | |
| ARGUS2 | 2026-09-05 23:54:10 | 27.72911 | -82.32256 | 356° | 18km/h | 13991m | 4.9m/s | -62.4°C | 0% | 0hPa | 0V | 00:00:00 | 00:00:00 | 00:00:00 | |
| ARGUS2 | 2026-09-05 23:53:49 | 27.72832 | -82.32258 | 10° | 13km/h | 13911m | 4.4m/s | -61.9°C | 0% | 0hPa | 0V | 00:00:00 | 00:00:00 | 00:00:00 | |
| ARGUS2 | 2026-09-05 23:53:29 | 27.72748 | -82.32256 | 17° | 13km/h | 13829m | 3.7m/s | -61.3°C | 0% | 0hPa | 0V | 00:00:00 | 00:00:00 | 00:00:00 | |
| ARGUS2 | 2026-09-05 23:53:08 | 27.72656 | -82.32262 | 16° | 15km/h | 13746m | 3.0m/s | -60.6°C | 0% | 0hPa | 0V | 00:00:00 | 00:00:00 | 00:00:00 | |
| ARGUS2 | 2026-09-05 23:52:48 | 27.72544 | -82.32269 | 354° | 20km/h | 13661m | 3.3m/s | -60.2°C | 0% | 0hPa | 0V | 00:00:00 | 00:00:00 | 00:00:00 | |
| ARGUS2 | 2026-09-05 23:52:27 | 27.72447 | -82.32236 | 324° | 26km/h | 13574m | 4.6m/s | -59.8°C | 0% | 0hPa | 0V | 00:00:00 | 00:00:00 | 00:00:00 | |
| ARGUS2 | 2026-09-05 23:52:07 | 27.72358 | -82.32177 | 313° | 20km/h | 13484m | 5.2m/s | -59.2°C | 0% | 0hPa | 0V | 00:00:00 | 00:00:00 | 00:00:00 | |
| ARGUS2 | 2026-09-05 23:51:46 | 27.72289 | -82.32114 | 336° | 24km/h | 13391m | 3.2m/s | -58.5°C | 0% | 0hPa | 0V | 00:00:00 | 00:00:00 | 00:00:00 | |
| ARGUS2 | 2026-09-05 23:51:26 | 27.72221 | -82.32043 | 316° | 20km/h | 13298m | 4.2m/s | -57.8°C | 0% | 0hPa | 0V | 00:00:00 | 00:00:00 | 00:00:00 | |
| ARGUS2 | 2026-09-05 23:51:05 | 27.72155 | -82.31969 | 313° | 20km/h | 13203m | 5.3m/s | -57.0°C | 0% | 0hPa | 0V | 00:00:00 | 00:00:00 | 00:00:00 | |
| ARGUS2 | 2026-09-05 23:50:45 | 27.72095 | -82.31899 | 331° | 22km/h | 13105m | 3.6m/s | -56.3°C | 0% | 0hPa | 0V | 00:00:00 | 00:00:00 | 00:00:00 | |
| ARGUS2 | 2026-09-05 23:50:23 | 27.72027 | -82.31827 | 323° | 18km/h | 13008m | 5.0m/s | -55.5°C | 0% | 0hPa | 0V | 00:00:00 | 00:00:00 | 00:00:00 | |
| ARGUS2 | 2026-09-05 23:50:03 | 27.71955 | -82.31753 | 311° | 15km/h | 12913m | 3.5m/s | -54.8°C | 0% | 0hPa | 0V | 00:00:00 | 00:00:00 | 00:00:00 | |
| ARGUS2 | 2026-09-05 23:49:42 | 27.71881 | -82.31664 | 303° | 27km/h | 12810m | 4.9m/s | -54.1°C | 0% | 0hPa | 0V | 00:00:00 | 00:00:00 | 00:00:00 | |
| ARGUS2 | 2026-09-05 23:49:22 | 27.71802 | -82.31561 | 322° | 26km/h | 12712m | 6.0m/s | -53.4°C | 0% | 0hPa | 0V | 00:00:00 | 00:00:00 | 00:00:00 | |
| ARGUS2 | 2026-09-05 23:49:02 | 27.71713 | -82.31479 | 358° | 37km/h | 12601m | 4.1m/s | -52.7°C | 0% | 0hPa | 0V | 00:00:00 | 00:00:00 | 00:00:00 | |
| ARGUS2 | 2026-09-05 23:48:41 | 27.71639 | -82.31419 | 319° | 16km/h | 12484m | 4.1m/s | -51.7°C | 0% | 0hPa | 0V | 00:00:00 | 00:00:00 | 00:00:00 | |
| ARGUS2 | 2026-09-05 23:48:20 | 27.71562 | -82.31362 | 287° | 9km/h | 12381m | 4.7m/s | -50.8°C | 0% | 0hPa | 0V | 00:00:00 | 00:00:00 | 00:00:00 | |
| ARGUS2 | 2026-09-05 23:48:00 | 27.71490 | -82.31311 | 356° | 15km/h | 12268m | 7.3m/s | -50.0°C | 0% | 0hPa | 0V | 00:00:00 | 00:00:00 | 00:00:00 | |
| ARGUS2 | 2026-09-05 23:47:40 | 27.71424 | -82.31305 | 330° | 9km/h | 12163m | 4.8m/s | -49.3°C | 0% | 0hPa | 0V | 00:00:00 | 00:00:00 | 00:00:00 | |
| ARGUS2 | 2026-09-05 23:47:19 | 27.71384 | -82.31273 | 349° | 4km/h | 12065m | 4.2m/s | -48.5°C | 0% | 0hPa | 0V | 00:00:00 | 00:00:00 | 00:00:00 | |
| ARGUS2 | 2026-09-05 23:46:59 | 27.71349 | -82.31264 | 354° | 7km/h | 11958m | 6.0m/s | -47.5°C | 0% | 0hPa | 0V | 00:00:00 | 00:00:00 | 00:00:00 | |
| ARGUS2 | 2026-09-05 23:46:38 | 27.71320 | -82.31268 | 13° | 11km/h | 11856m | 4.4m/s | -46.7°C | 0% | 0hPa | 0V | 00:00:00 | 00:00:00 | 00:00:00 | |
| ARGUS2 | 2026-09-05 23:46:18 | 27.71280 | -82.31273 | 323° | 7km/h | 11752m | 4.2m/s | -45.7°C | 0% | 0hPa | 0V | 00:00:00 | 00:00:00 | 00:00:00 | |
| ARGUS2 | 2026-09-05 23:45:57 | 27.71242 | -82.31276 | 24° | 4km/h | 11657m | 5.1m/s | -44.9°C | 0% | 0hPa | 0V | 00:00:00 | 00:00:00 | 00:00:00 | |
| ARGUS2 | 2026-09-05 23:45:37 | 27.71211 | -82.31277 | 331° | 11km/h | 11558m | 4.2m/s | -44.0°C | 0% | 0hPa | 0V | 00:00:00 | 00:00:00 | 00:00:00 | |
| ARGUS2 | 2026-09-05 23:45:16 | 27.71175 | -82.31284 | 7° | 7km/h | 11456m | 5.2m/s | -43.2°C | 0% | 0hPa | 0V | 00:00:00 | 00:00:00 | 00:00:00 | |
| ARGUS2 | 2026-09-05 23:44:55 | 27.71143 | -82.31287 | 349° | 11km/h | 11360m | 4.4m/s | -42.4°C | 0% | 0hPa | 0V | 00:00:00 | 00:00:00 | 00:00:00 | |
| ARGUS2 | 2026-09-05 23:44:35 | 27.71103 | -82.31279 | 36° | 15km/h | 11265m | 3.9m/s | -41.7°C | 0% | 0hPa | 0V | 00:00:00 | 00:00:00 | 00:00:00 | |
| ARGUS2 | 2026-09-05 23:44:14 | 27.71071 | -82.31292 | 11° | 9km/h | 11175m | 4.8m/s | -40.9°C | 0% | 0hPa | 0V | 00:00:00 | 00:00:00 | 00:00:00 | |
| ARGUS2 | 2026-09-05 23:43:54 | 27.71033 | -82.31322 | 58° | 11km/h | 11079m | 3.3m/s | -40.2°C | 0% | 0hPa | 0V | 00:00:00 | 00:00:00 | 00:00:00 | |
| ARGUS2 | 2026-09-05 23:43:12 | 27.70959 | -82.31459 | 55° | 20km/h | 10897m | 4.8m/s | -38.9°C | 0% | 0hPa | 0V | 00:00:00 | 00:00:00 | 00:00:00 | |
| ARGUS2 | 2026-09-05 23:42:52 | 27.70919 | -82.31545 | 60° | 15km/h | 10809m | 3.4m/s | -38.2°C | 0% | 0hPa | 0V | 00:00:00 | 00:00:00 | 00:00:00 | |
| ARGUS2 | 2026-09-05 23:42:32 | 27.70870 | -82.31664 | 66° | 26km/h | 10716m | 5.2m/s | -37.6°C | 0% | 0hPa | 0V | 00:00:00 | 00:00:00 | 00:00:00 | |
| ARGUS2 | 2026-09-05 23:42:11 | 27.70814 | -82.31799 | 52° | 29km/h | 10630m | 4.5m/s | -36.9°C | 0% | 0hPa | 0V | 00:00:00 | 00:00:00 | 00:00:00 | |
| ARGUS2 | 2026-09-05 23:41:51 | 27.70748 | -82.31947 | 70° | 22km/h | 10547m | 4.5m/s | -36.2°C | 0% | 0hPa | 0V | 00:00:00 | 00:00:00 | 00:00:00 | |
| ARGUS2 | 2026-09-05 23:41:30 | 27.70683 | -82.32072 | 70° | 24km/h | 10471m | 3.8m/s | -35.6°C | 0% | 0hPa | 0V | 00:00:00 | 00:00:00 | 00:00:00 | |
| ARGUS2 | 2026-09-05 23:41:10 | 27.70630 | -82.32204 | 82° | 20km/h | 10388m | 4.2m/s | -34.9°C | 0% | 0hPa | 0V | 00:00:00 | 00:00:00 | 00:00:00 | |
| ARGUS2 | 2026-09-05 23:40:49 | 27.70592 | -82.32319 | 60° | 16km/h | 10309m | 3.1m/s | -34.4°C | 0% | 0hPa | 0V | 00:00:00 | 00:00:00 | 00:00:00 | |
| ARGUS2 | 2026-09-05 23:40:29 | 27.70559 | -82.32421 | 106° | 16km/h | 10229m | 3.9m/s | -33.7°C | 0% | 0hPa | 0V | 00:00:00 | 00:00:00 | 00:00:00 | |
| ARGUS2 | 2026-09-05 23:40:08 | 27.70539 | -82.32530 | 21° | 7km/h | 10148m | 3.9m/s | -33.0°C | 0% | 0hPa | 0V | 00:00:00 | 00:00:00 | 00:00:00 | |
| ARGUS2 | 2026-09-05 23:39:47 | 27.70503 | -82.32594 | 52° | 20km/h | 10070m | 3.9m/s | -32.2°C | 0% | 0hPa | 0V | 00:00:00 | 00:00:00 | 00:00:00 | |
| ARGUS2 | 2026-09-05 23:39:27 | 27.70451 | -82.32676 | 49° | 22km/h | 9995m | 4.4m/s | -31.6°C | 0% | 0hPa | 0V | 00:00:00 | 00:00:00 | 00:00:00 | |
| ARGUS2 | 2026-09-05 23:39:06 | 27.70399 | -82.32742 | 42° | 13km/h | 9922m | 2.9m/s | -31.1°C | 0% | 0hPa | 0V | 00:00:00 | 00:00:00 | 00:00:00 | |
| ARGUS2 | 2026-09-05 23:38:45 | 27.70325 | -82.32812 | 59° | 16km/h | 9847m | 3.6m/s | -31.2°C | 0% | 0hPa | 0V | 00:00:00 | 00:00:00 | 00:00:00 | |
| ARGUS2 | 2026-09-05 23:38:25 | 27.70255 | -82.32833 | 361° | 16km/h | 9774m | 3.1m/s | -30.8°C | 0% | 0hPa | 0V | 00:00:00 | 00:00:00 | 00:00:00 | |
| ARGUS2 | 2026-09-05 23:38:04 | 27.70168 | -82.32860 | 31° | 20km/h | 9693m | 4.9m/s | -30.3°C | 0% | 0hPa | 0V | 00:00:00 | 00:00:00 | 00:00:00 | |
| ARGUS2 | 2026-09-05 23:37:44 | 27.70092 | -82.32895 | 34° | 16km/h | 9617m | 4.9m/s | -29.8°C | 0% | 0hPa | 0V | 00:00:00 | 00:00:00 | 00:00:00 | |
| ARGUS2 | 2026-09-05 23:37:24 | 27.70036 | -82.32936 | 28° | 15km/h | 9537m | 2.9m/s | -29.1°C | 0% | 0hPa | 0V | 00:00:00 | 00:00:00 | 00:00:00 | |
| ARGUS2 | 2026-09-05 23:37:03 | 27.69976 | -82.32996 | 29° | 15km/h | 9462m | 4.5m/s | -28.4°C | 0% | 0hPa | 0V | 00:00:00 | 00:00:00 | 00:00:00 | |
| ARGUS2 | 2026-09-05 23:36:43 | 27.69908 | -82.33022 | 18° | 13km/h | 9375m | 3.7m/s | -27.8°C | 0% | 0hPa | 0V | 00:00:00 | 00:00:00 | 00:00:00 | |
| ARGUS2 | 2026-09-05 23:36:22 | 27.69849 | -82.33038 | 25° | 20km/h | 9292m | 3.2m/s | -27.1°C | 0% | 0hPa | 0V | 00:00:00 | 00:00:00 | 00:00:00 | |
| ARGUS2 | 2026-09-05 23:35:41 | 27.69703 | -82.33085 | 352° | 7km/h | 9123m | 5.4m/s | -25.8°C | 0% | 0hPa | 0V | 00:00:00 | 00:00:00 | 00:00:00 | |
| ARGUS2 | 2026-09-05 23:35:21 | 27.69634 | -82.33125 | 358° | 18km/h | 9033m | 4.0m/s | -25.0°C | 0% | 0hPa | 0V | 00:00:00 | 00:00:00 | 00:00:00 | |
| ARGUS2 | 2026-09-05 23:35:00 | 27.69556 | -82.33162 | 23° | 24km/h | 8941m | 3.6m/s | -24.6°C | 0% | 0hPa | 0V | 00:00:00 | 00:00:00 | 00:00:00 | |
| ARGUS2 | 2026-09-05 23:34:39 | 27.69455 | -82.33182 | 359° | 24km/h | 8855m | 5.5m/s | -23.9°C | 0% | 0hPa | 0V | 00:00:00 | 00:00:00 | 00:00:00 | |
| ARGUS2 | 2026-09-05 23:34:18 | 27.69355 | -82.33212 | 61° | 20km/h | 8756m | 4.5m/s | -23.2°C | 0% | 0hPa | 0V | 00:00:00 | 00:00:00 | 00:00:00 | |
| ARGUS2 | 2026-09-05 23:33:57 | 27.69258 | -82.33270 | 53° | 16km/h | 8656m | 4.6m/s | -22.5°C | 0% | 0hPa | 0V | 00:00:00 | 00:00:00 | 00:00:00 | |
| ARGUS2 | 2026-09-05 23:33:35 | 27.69193 | -82.33353 | 47° | 22km/h | 8563m | 4.8m/s | -21.7°C | 0% | 0hPa | 0V | 00:00:00 | 00:00:00 | 00:00:00 | |
| ARGUS2 | 2026-09-05 23:32:54 | 27.69061 | -82.33515 | 36° | 20km/h | 8383m | 4.9m/s | -20.4°C | 0% | 0hPa | 0V | 00:00:00 | 00:00:00 | 00:00:00 | |
| ARGUS2 | 2026-09-05 23:32:34 | 27.68990 | -82.33574 | 57° | 15km/h | 8296m | 3.7m/s | -19.9°C | 0% | 0hPa | 0V | 00:00:00 | 00:00:00 | 00:00:00 | |
| ARGUS2 | 2026-09-05 23:32:13 | 27.68928 | -82.33659 | 62° | 24km/h | 8208m | 4.3m/s | -19.7°C | 0% | 0hPa | 0V | 00:00:00 | 00:00:00 | 00:00:00 | |
| ARGUS2 | 2026-09-05 23:31:53 | 27.68894 | -82.33720 | 58° | 15km/h | 8123m | 4.2m/s | -19.2°C | 0% | 0hPa | 0V | 00:00:00 | 00:00:00 | 00:00:00 | |
| ARGUS2 | 2026-09-05 23:31:33 | 27.68867 | -82.33781 | 58° | 5km/h | 8031m | 5.3m/s | -18.6°C | 0% | 0hPa | 0V | 00:00:00 | 00:00:00 | 00:00:00 | |
| ARGUS2 | 2026-09-05 23:31:12 | 27.68848 | -82.33834 | 62° | 20km/h | 7947m | 4.2m/s | -17.9°C | 0% | 0hPa | 0V | 00:00:00 | 00:00:00 | 00:00:00 | |
| ARGUS2 | 2026-09-05 23:30:52 | 27.68835 | -82.33890 | 83° | 11km/h | 7858m | 4.9m/s | -17.1°C | 0% | 0hPa | 0V | 00:00:00 | 00:00:00 | 00:00:00 | |
| ARGUS2 | 2026-09-05 23:30:31 | 27.68834 | -82.33942 | 82° | 2km/h | 7771m | 3.5m/s | -16.5°C | 0% | 0hPa | 0V | 00:00:00 | 00:00:00 | 00:00:00 | |
| ARGUS2 | 2026-09-05 23:30:11 | 27.68842 | -82.33991 | 145° | 4km/h | 7682m | 4.8m/s | -15.8°C | 0% | 0hPa | 0V | 00:00:00 | 00:00:00 | 00:00:00 | |
| ARGUS2 | 2026-09-05 23:29:49 | 27.68862 | -82.34039 | 170° | 7km/h | 7592m | 3.7m/s | -15.3°C | 0% | 0hPa | 0V | 00:00:00 | 00:00:00 | 00:00:00 | |
| ARGUS2 | 2026-09-05 23:29:28 | 27.68872 | -82.34092 | 70° | 5km/h | 7503m | 5.1m/s | -14.7°C | 0% | 0hPa | 0V | 00:00:00 | 00:00:00 | 00:00:00 | |
| ARGUS2 | 2026-09-05 23:29:00 | 27.68901 | -82.34167 | 110° | 15km/h | 7387m | 4.9m/s | -13.9°C | 0% | 0hPa | 0V | 00:00:00 | 00:00:00 | 00:00:00 | |
| ARGUS2 | 2026-09-05 23:28:40 | 27.68925 | -82.34231 | 91° | 5km/h | 7297m | 2.9m/s | -13.4°C | 0% | 0hPa | 0V | 00:00:00 | 00:00:00 | 00:00:00 | |
| ARGUS2 | 2026-09-05 23:28:18 | 27.68954 | -82.34290 | 46° | 7km/h | 7214m | 4.3m/s | -13.1°C | 0% | 0hPa | 0V | 00:00:00 | 00:00:00 | 00:00:00 | |
| ARGUS2 | 2026-09-05 23:27:58 | 27.68980 | -82.34343 | 128° | 18km/h | 7138m | 3.5m/s | -12.6°C | 0% | 0hPa | 0V | 00:00:00 | 00:00:00 | 00:00:00 | |
| ARGUS2 | 2026-09-05 23:27:38 | 27.69019 | -82.34394 | 121° | 7km/h | 7058m | 3.5m/s | -12.2°C | 0% | 0hPa | 0V | 00:00:00 | 00:00:00 | 00:00:00 | |
| ARGUS2 | 2026-09-05 23:27:17 | 27.69045 | -82.34429 | 98° | 9km/h | 6978m | 4.1m/s | -11.6°C | 0% | 0hPa | 0V | 00:00:00 | 00:00:00 | 00:00:00 | |
| ARGUS2 | 2026-09-05 23:26:57 | 27.69075 | -82.34495 | 96° | 13km/h | 6898m | 4.2m/s | -11.2°C | 0% | 0hPa | 0V | 00:00:00 | 00:00:00 | 00:00:00 | |
| ARGUS2 | 2026-09-05 23:26:36 | 27.69089 | -82.34558 | 98° | 11km/h | 6820m | 4.2m/s | -10.9°C | 0% | 0hPa | 0V | 00:00:00 | 00:00:00 | 00:00:00 | |
| ARGUS2 | 2026-09-05 23:26:16 | 27.69102 | -82.34627 | 94° | 16km/h | 6738m | 4.8m/s | -10.4°C | 0% | 0hPa | 0V | 00:00:00 | 00:00:00 | 00:00:00 | |
| ARGUS2 | 2026-09-05 23:25:54 | 27.69118 | -82.34719 | 90° | 13km/h | 6654m | 3.4m/s | -10.1°C | 0% | 0hPa | 0V | 00:00:00 | 00:00:00 | 00:00:00 | |
| ARGUS2 | 2026-09-05 23:25:34 | 27.69142 | -82.34817 | 89° | 16km/h | 6573m | 4.3m/s | -9.7°C | 0% | 0hPa | 0V | 00:00:00 | 00:00:00 | 00:00:00 | |
| ARGUS2 | 2026-09-05 23:25:13 | 27.69156 | -82.34923 | 97° | 20km/h | 6489m | 4.7m/s | -9.4°C | 0% | 0hPa | 0V | 00:00:00 | 00:00:00 | 00:00:00 | |
| ARGUS2 | 2026-09-05 23:24:53 | 27.69183 | -82.35037 | 100° | 15km/h | 6407m | 4.7m/s | -9.0°C | 0% | 0hPa | 0V | 00:00:00 | 00:00:00 | 00:00:00 | |
| ARGUS2 | 2026-09-05 23:24:32 | 27.69219 | -82.35165 | 108° | 33km/h | 6314m | 4.4m/s | -8.5°C | 0% | 0hPa | 0V | 00:00:00 | 00:00:00 | 00:00:00 | |
| ARGUS2 | 2026-09-05 23:24:11 | 27.69247 | -82.35315 | 123° | 27km/h | 6229m | 4.8m/s | -8.0°C | 0% | 0hPa | 0V | 00:00:00 | 00:00:00 | 00:00:00 | |
| ARGUS2 | 2026-09-05 23:23:49 | 27.69293 | -82.35463 | 111° | 33km/h | 6141m | 4.2m/s | -7.5°C | 0% | 0hPa | 0V | 00:00:00 | 00:00:00 | 00:00:00 | |
| ARGUS2 | 2026-09-05 23:23:09 | 27.69330 | -82.35707 | 87° | 18km/h | 5981m | 1.3m/s | -6.8°C | 0% | 0hPa | 0V | 00:00:00 | 00:00:00 | 00:00:00 | |
| ARGUS2 | 2026-09-05 23:22:48 | 27.69329 | -82.35827 | 96° | 13km/h | 5909m | 3.4m/s | -6.5°C | 0% | 0hPa | 0V | 00:00:00 | 00:00:00 | 00:00:00 | |
| ARGUS2 | 2026-09-05 23:21:41 | 27.69280 | -82.36198 | 81° | 18km/h | 5672m | 3.1m/s | -5.1°C | 0% | 0hPa | 0V | 00:00:00 | 00:00:00 | 00:00:00 | |
| ARGUS2 | 2026-09-05 23:21:21 | 27.69273 | -82.36297 | 71° | 16km/h | 5596m | 3.0m/s | -4.8°C | 0% | 0hPa | 0V | 00:00:00 | 00:00:00 | 00:00:00 | |
| ARGUS2 | 2026-09-05 23:20:59 | 27.69275 | -82.36401 | 122° | 16km/h | 5517m | 4.3m/s | -4.4°C | 0% | 0hPa | 0V | 00:00:00 | 00:00:00 | 00:00:00 | |
| ARGUS2 | 2026-09-05 23:20:36 | 27.69299 | -82.36530 | 127° | 29km/h | 5420m | 4.8m/s | -3.9°C | 0% | 0hPa | 0V | 00:00:00 | 00:00:00 | 00:00:00 | |
| ARGUS2 | 2026-09-05 23:20:14 | 27.69301 | -82.36603 | 27° | 18km/h | 5314m | 5.8m/s | -3.3°C | 0% | 0hPa | 0V | 00:00:00 | 00:00:00 | 00:00:00 | |
| ARGUS2 | 2026-09-05 23:19:52 | 27.69303 | -82.36693 | 87° | 16km/h | 5205m | 3.7m/s | -2.7°C | 0% | 0hPa | 0V | 00:00:00 | 00:00:00 | 00:00:00 | |
| ARGUS2 | 2026-09-05 23:19:32 | 27.69305 | -82.36768 | 59° | 18km/h | 5127m | 4.1m/s | -2.1°C | 0% | 0hPa | 0V | 00:00:00 | 00:00:00 | 00:00:00 | |
| ARGUS2 | 2026-09-05 23:19:11 | 27.69305 | -82.36858 | 84° | 22km/h | 5045m | 4.0m/s | -1.6°C | 0% | 0hPa | 0V | 00:00:00 | 00:00:00 | 00:00:00 | |
| ARGUS2 | 2026-09-05 23:18:51 | 27.69319 | -82.36932 | 116° | 18km/h | 4966m | 4.7m/s | -1.0°C | 0% | 0hPa | 0V | 00:00:00 | 00:00:00 | 00:00:00 | |
| ARGUS2 | 2026-09-05 23:18:31 | 27.69345 | -82.37052 | 86° | 15km/h | 4871m | 3.2m/s | -0.6°C | 0% | 0hPa | 0V | 00:00:00 | 00:00:00 | 00:00:00 | |
| ARGUS2 | 2026-09-05 23:18:10 | 27.69375 | -82.37128 | 118° | 22km/h | 4785m | 5.3m/s | -0.0°C | 0% | 0hPa | 0V | 00:00:00 | 00:00:00 | 00:00:00 | |
| ARGUS2 | 2026-09-05 23:17:49 | 27.69396 | -82.37206 | 134° | 26km/h | 4687m | 4.3m/s | 0.8°C | 0% | 0hPa | 0V | 00:00:00 | 00:00:00 | 00:00:00 | |
| ARGUS2 | 2026-09-05 23:17:29 | 27.69443 | -82.37299 | 107° | 22km/h | 4599m | 4.4m/s | 1.4°C | 0% | 0hPa | 0V | 00:00:00 | 00:00:00 | 00:00:00 | |
| ARGUS2 | 2026-09-05 23:17:18 | 27.69468 | -82.37383 | 127° | 16km/h | 4501m | 3.8m/s | 2.1°C | 0% | 0hPa | 0V | 00:00:00 | 00:00:00 | 00:00:00 | |
| ARGUS2 | 2026-09-05 23:16:46 | 27.69486 | -82.37468 | 100° | 18km/h | 4405m | 5.2m/s | 2.7°C | 0% | 0hPa | 0V | 00:00:00 | 00:00:00 | 00:00:00 | |
| ARGUS2 | 2026-09-05 23:16:26 | 27.69501 | -82.37553 | 122° | 9km/h | 4316m | 4.2m/s | 3.2°C | 0% | 0hPa | 0V | 00:00:00 | 00:00:00 | 00:00:00 | |
| ARGUS2 | 2026-09-05 23:16:04 | 27.69519 | -82.37658 | 119° | 24km/h | 4232m | 3.7m/s | 0°C | 0% | 0hPa | 0V | 00:00:00 | 00:00:00 | 00:00:00 | |
| ARGUS2 | 2026-09-05 23:11:46 | 27.69465 | -82.38620 | 103° | 26km/h | 2978m | 3.9m/s | 10.4°C | 0% | 0hPa | 0V | 00:00:00 | 00:00:00 | 00:00:00 | |
| ARGUS2 | 2026-09-05 23:11:20 | 27.69481 | -82.38715 | 183° | 5km/h | 2837m | 5.1m/s | 11.3°C | 0% | 0hPa | 0V | 00:00:00 | 00:00:00 | 00:00:00 | |
| ARGUS2 | 2026-09-05 23:10:56 | 27.69473 | -82.38775 | 70° | 16km/h | 2696m | 3.7m/s | 11.9°C | 0% | 0hPa | 0V | 00:00:00 | 00:00:00 | 00:00:00 | |
| ARGUS2 | 2026-09-05 23:10:04 | 27.69480 | -82.38943 | 41° | 9km/h | 2436m | 6.0m/s | 13.9°C | 0% | 0hPa | 0V | 00:00:00 | 00:00:00 | 00:00:00 | |
| ARGUS2 | 2026-09-05 23:09:44 | 27.69481 | -82.38960 | 62° | 16km/h | 2320m | 6.5m/s | 14.3°C | 0% | 0hPa | 0V | 00:00:00 | 00:00:00 | 00:00:00 | |
| ARGUS2 | 2026-09-05 23:09:16 | 27.69480 | -82.39019 | 130° | 22km/h | 2178m | 6.4m/s | 15.2°C | 0% | 0hPa | 0V | 00:00:00 | 00:00:00 | 00:00:00 | |
| ARGUS2 | 2026-09-05 23:08:55 | 27.69505 | -82.39051 | 215° | 9km/h | 2062m | 6.3m/s | 15.7°C | 0% | 0hPa | 0V | 00:00:00 | 00:00:00 | 00:00:00 | |
| ARGUS2 | 2026-09-05 23:08:32 | 27.69556 | -82.39083 | 124° | 18km/h | 1944m | 5.3m/s | 16.5°C | 0% | 0hPa | 0V | 00:00:00 | 00:00:00 | 00:00:00 | |
| ARGUS2 | 2026-09-05 23:08:09 | 27.69623 | -82.39108 | 0° | 0km/h | 1820m | 4.5m/s | 17.5°C | 0% | 0hPa | 0V | 00:00:00 | 00:00:00 | 00:00:00 | |
| ARGUS2 | 2026-09-05 23:07:49 | 27.69674 | -82.39140 | 135° | 26km/h | 1714m | 5.2m/s | 18.2°C | 0% | 0hPa | 0V | 00:00:00 | 00:00:00 | 00:00:00 | |
| ARGUS2 | 2026-09-05 23:07:25 | 27.69743 | -82.39201 | 203° | 16km/h | 1596m | 6.5m/s | 19.2°C | 0% | 0hPa | 0V | 00:00:00 | 00:00:00 | 00:00:00 | |
| ARGUS2 | 2026-09-05 23:07:05 | 27.69803 | -82.39245 | 115° | 2km/h | 1474m | 4.1m/s | 20.1°C | 0% | 0hPa | 0V | 00:00:00 | 00:00:00 | 00:00:00 | |
| ARGUS2 | 2026-09-05 23:06:10 | 27.69938 | -82.39429 | 162° | 22km/h | 1209m | 7.0m/s | 21.8°C | 0% | 0hPa | 0V | 00:00:00 | 00:00:00 | 00:00:00 | |
| ARGUS2 | 2026-09-05 23:05:42 | 27.70034 | -82.39491 | 195° | 20km/h | 1045m | 6.2m/s | 21.5°C | 0% | 0hPa | 0V | 00:00:00 | 00:00:00 | 00:00:00 |